Observation data for Fritch on 11/19/2019      Previous  Date  Next       Current Mesonet Observations  Soil Data  Daily Summary Page  Observations in Plain Language
KFR1 190600Z 05003KT 09/01 A2999 RMK A01 T00860011  RH  059%=      5-min Rain = 0
KFR1 190601Z 05003KT 09/01 A2999 RMK A01 T00850012  RH  060%=      5-min Rain = 0
KFR1 190602Z 06002KT 09/01 A2999 RMK A01 T00850011  RH  060%=      5-min Rain = 0
KFR1 190603Z 06002KT 08/01 A2999 RMK A01 T00840011  RH  060%=      5-min Rain = 0
KFR1 190604Z 07002KT 08/01 A2999 RMK A01 T00840010  RH  060%=      5-min Rain = 0
KFR1 190605Z 05003KT 08/01 A2999 RMK A01 T00830010  RH  060%=      5-min Rain = 0
KFR1 190606Z 06002KT 08/01 A2999 RMK A01 T00830010  RH  060%=      5-min Rain = 0
KFR1 190607Z 06002KT 08/01 A2999 RMK A01 T00830010  RH  060%=      5-min Rain = 0
KFR1 190608Z 05003KT 08/01 A2999 RMK A01 T00840010  RH  060%=      5-min Rain = 0
KFR1 190609Z 07002KT 08/01 A2999 RMK A01 T00840011  RH  060%=      5-min Rain = 0
KFR1 190610Z 08002KT 08/01 A2999 RMK A01 T00830011  RH  061%=      5-min Rain = 0
KFR1 190611Z 08002KT 08/01 A2999 RMK A01 T00820011  RH  061%=      5-min Rain = 0
KFR1 190612Z 10002KT 08/01 A2999 RMK A01 T00820011  RH  061%=      5-min Rain = 0
KFR1 190613Z 09001KT 08/01 A2999 RMK A01 T00820011  RH  061%=      5-min Rain = 0
KFR1 190614Z 09001KT 08/01 A2999 RMK A01 T00810011  RH  061%=      5-min Rain = 0
KFR1 190615Z 09002KT 08/01 A2999 RMK A01 T00810011  RH  061%=      5-min Rain = 0
KFR1 190616Z 07002KT 08/01 A2999 RMK A01 T00810012  RH  062%=      5-min Rain = 0
KFR1 190617Z 07002KT 08/01 A2999 RMK A01 T00810012  RH  062%=      5-min Rain = 0
KFR1 190618Z 08002KT 08/01 A2999 RMK A01 T00810012  RH  062%=      5-min Rain = 0
KFR1 190619Z 09002KT 08/01 A2999 RMK A01 T00820012  RH  061%=      5-min Rain = 0
KFR1 190620Z 10002KT 08/01 A2999 RMK A01 T00840012  RH  061%=      5-min Rain = 0
KFR1 190621Z 11002KT 09/01 A2999 RMK A01 T00850011  RH  060%=      5-min Rain = 0
KFR1 190622Z 10001KT 09/01 A2999 RMK A01 T00850010  RH  059%=      5-min Rain = 0
KFR1 190623Z 10001KT 09/01 A2999 RMK A01 T00860011  RH  060%=      5-min Rain = 0
KFR1 190624Z 10001KT 09/01 A2999 RMK A01 T00850012  RH  060%=      5-min Rain = 0
KFR1 190625Z 18000KT 08/01 A2999 RMK A01 T00830012  RH  061%=      5-min Rain = 0
KFR1 190626Z 19003KT 08/01 A2999 RMK A01 T00800012  RH  062%=      5-min Rain = 0
KFR1 190627Z 19003KT 08/01 A2999 RMK A01 T00770011  RH  063%=      5-min Rain = 0
KFR1 190628Z 20001KT 07/01 A2999 RMK A01 T00740010  RH  064%=      5-min Rain = 0
KFR1 190629Z 35001KT 07/01 A2998 RMK A01 T00730009  RH  064%=      5-min Rain = 0
KFR1 190630Z 01002KT 08/01 A2998 RMK A01 T00780009  RH  062%=      5-min Rain = 0
KFR1 190631Z 03002KT 08/01 A2998 RMK A01 T00840010  RH  059%=      5-min Rain = 0
KFR1 190632Z 02002KT 09/01 A2999 RMK A01 T00890010  RH  058%=      5-min Rain = 0
KFR1 190633Z 28005KT 09/01 A2999 RMK A01 T00880010  RH  058%=      5-min Rain = 0
KFR1 190634Z 28004KT 08/01 A2999 RMK A01 T00800008  RH  060%=      5-min Rain = 0
KFR1 190635Z 27001KT 07/01 A2999 RMK A01 T00730008  RH  063%=      5-min Rain = 0
KFR1 190636Z 00000KT 07/01 A2998 RMK A01 T00700007  RH  064%=      5-min Rain = 0
KFR1 190637Z 11001KT 07/01 A2998 RMK A01 T00710008  RH  064%=      5-min Rain = 0
KFR1 190638Z 11002KT 08/01 A2998 RMK A01 T00750009  RH  063%=      5-min Rain = 0
KFR1 190639Z 13001KT 08/01 A2998 RMK A01 T00810009  RH  061%=      5-min Rain = 0
KFR1 190640Z 14000KT 08/01 A2998 RMK A01 T00830009  RH  060%=      5-min Rain = 0
KFR1 190641Z 27002KT 08/01 A2999 RMK A01 T00820009  RH  060%=      5-min Rain = 0
KFR1 190642Z 30002KT 08/01 A2999 RMK A01 T00790007  RH  061%=      5-min Rain = 0
KFR1 190643Z 29002KT 08/01 A2999 RMK A01 T00760007  RH  062%=      5-min Rain = 0
KFR1 190644Z 24003KT 07/01 A2998 RMK A01 T00740007  RH  062%=      5-min Rain = 0
KFR1 190645Z 21002KT 07/01 A2998 RMK A01 T00730007  RH  063%=      5-min Rain = 0
KFR1 190646Z 20001KT 07/01 A2998 RMK A01 T00710006  RH  063%=      5-min Rain = 0
KFR1 190647Z 10001KT 07/01 A2998 RMK A01 T00690006  RH  064%=      5-min Rain = 0
KFR1 190648Z 09002KT 07/01 A2998 RMK A01 T00700007  RH  064%=      5-min Rain = 0
KFR1 190649Z 08002KT 08/01 A2998 RMK A01 T00750010  RH  063%=      5-min Rain = 0
KFR1 190650Z 05002KT 08/01 A2998 RMK A01 T00760008  RH  062%=      5-min Rain = 0
KFR1 190651Z 04002KT 07/01 A2998 RMK A01 T00730006  RH  062%=      5-min Rain = 0
KFR1 190652Z 02003KT 07/01 A2998 RMK A01 T00700005  RH  064%=      5-min Rain = 0
KFR1 190653Z 03002KT 07/01 A2998 RMK A01 T00670007  RH  066%=      5-min Rain = 0
KFR1 190654Z 04000KT 07/01 A2998 RMK A01 T00670008  RH  066%=      5-min Rain = 0
KFR1 190655Z 00000KT 07/01 A2999 RMK A01 T00680010  RH  066%=      5-min Rain = 0
KFR1 190656Z 00000KT 07/01 A2999 RMK A01 T00680010  RH  067%=      5-min Rain = 0
KFR1 190657Z 00000KT 07/01 A2999 RMK A01 T00670008  RH  066%=      5-min Rain = 0
KFR1 190658Z 00000KT 07/01 A2999 RMK A01 T00690008  RH  065%=      5-min Rain = 0
KFR1 190659Z 00000KT 07/01 A2999 RMK A01 T00710008  RH  064%=      5-min Rain = 0
KFR1 190700Z 00000KT 07/01 A2999 RMK A01 T00720008  RH  064%=      5-min Rain = 0
KFR1 190701Z 04000KT 07/01 A2999 RMK A01 T00730008  RH  063%=      5-min Rain = 0
KFR1 190702Z 00000KT 07/01 A2999 RMK A01 T00740008  RH  063%=      5-min Rain = 0
KFR1 190703Z 00000KT 07/01 A2999 RMK A01 T00740008  RH  063%=      5-min Rain = 0
KFR1 190704Z 00000KT 07/01 A2999 RMK A01 T00740008  RH  063%=      5-min Rain = 0
KFR1 190705Z 27001KT 07/01 A2999 RMK A01 T00740008  RH  063%=      5-min Rain = 0
KFR1 190706Z 26001KT 07/01 A2999 RMK A01 T00740009  RH  063%=      5-min Rain = 0
KFR1 190707Z 24001KT 07/01 A2999 RMK A01 T00740010  RH  064%=      5-min Rain = 0
KFR1 190708Z 23002KT 07/01 A2999 RMK A01 T00720010  RH  065%=      5-min Rain = 0
KFR1 190709Z 23002KT 07/01 A2999 RMK A01 T00710010  RH  065%=      5-min Rain = 0
KFR1 190710Z 25002KT 07/01 A2999 RMK A01 T00700010  RH  066%=      5-min Rain = 0
KFR1 190711Z 27002KT 07/01 A30 RMK A01 T00690011  RH  066%=      5-min Rain = 0
KFR1 190712Z 26002KT 07/01 A30 RMK A01 T00680011  RH  067%=      5-min Rain = 0
KFR1 190713Z 25002KT 07/01 A30 RMK A01 T00680009  RH  066%=      5-min Rain = 0
KFR1 190714Z 25002KT 07/01 A30 RMK A01 T00670009  RH  066%=      5-min Rain = 0
KFR1 190715Z 25002KT 07/01 A30 RMK A01 T00660009  RH  067%=      5-min Rain = 0
KFR1 190716Z 25002KT 07/01 A30 RMK A01 T00650008  RH  067%=      5-min Rain = 0
KFR1 190717Z 26002KT 06/01 A30 RMK A01 T00640010  RH  068%=      5-min Rain = 0
KFR1 190718Z 26002KT 06/01 A30 RMK A01 T00640011  RH  069%=      5-min Rain = 0
KFR1 190719Z 24002KT 06/01 A30 RMK A01 T00630013  RH  070%=      5-min Rain = 0
KFR1 190720Z 22002KT 06/02 A30 RMK A01 T00640015  RH  071%=      5-min Rain = 0
KFR1 190721Z 22002KT 07/02 A30 RMK A01 T00650016  RH  071%=      5-min Rain = 0
KFR1 190722Z 22002KT 07/02 A30 RMK A01 T00650016  RH  071%=      5-min Rain = 0
KFR1 190723Z 22001KT 07/02 A30 RMK A01 T00650016  RH  071%=      5-min Rain = 0
KFR1 190724Z 21001KT 07/02 A30 RMK A01 T00660016  RH  070%=      5-min Rain = 0
KFR1 190725Z 21001KT 07/01 A30 RMK A01 T00660014  RH  069%=      5-min Rain = 0
KFR1 190726Z 21000KT 07/01 A30 RMK A01 T00670014  RH  069%=      5-min Rain = 0
KFR1 190727Z 00000KT 07/02 A30 RMK A01 T00680015  RH  069%=      5-min Rain = 0
KFR1 190728Z 21000KT 07/01 A30 RMK A01 T00680014  RH  068%=      5-min Rain = 0
KFR1 190729Z 21000KT 07/01 A30 RMK A01 T00690013  RH  068%=      5-min Rain = 0
KFR1 190730Z 20001KT 07/01 A30 RMK A01 T00690012  RH  067%=      5-min Rain = 0
KFR1 190731Z 19002KT 07/01 A30 RMK A01 T00700010  RH  066%=      5-min Rain = 0
KFR1 190732Z 20002KT 07/01 A30 RMK A01 T00700009  RH  065%=      5-min Rain = 0
KFR1 190733Z 20002KT 07/01 A30 RMK A01 T00720010  RH  065%=      5-min Rain = 0
KFR1 190734Z 20002KT 07/01 A30 RMK A01 T00730012  RH  065%=      5-min Rain = 0
KFR1 190735Z 19002KT 08/01 A30 RMK A01 T00750011  RH  064%=      5-min Rain = 0
KFR1 190736Z 19003KT 08/01 A30 RMK A01 T00760009  RH  063%=      5-min Rain = 0
KFR1 190737Z 20003KT 08/01 A30 RMK A01 T00760008  RH  062%=      5-min Rain = 0
KFR1 190738Z 20003KT 08/01 A30 RMK A01 T00770006  RH  061%=      5-min Rain = 0
KFR1 190739Z 20003KT 08/01 A30 RMK A01 T00780005  RH  060%=      5-min Rain = 0
KFR1 190740Z 20003KT 08/00 A30 RMK A01 T00780004  RH  059%=      5-min Rain = 0
KFR1 190741Z 20003KT 08/00 A30 RMK A01 T00780003  RH  059%=      5-min Rain = 0
KFR1 190742Z 20002KT 08/00 A30 RMK A01 T00780003  RH  059%=      5-min Rain = 0
KFR1 190743Z 20002KT 08/00 A30 RMK A01 T00780002  RH  059%=      5-min Rain = 0
KFR1 190744Z 20002KT 08/00 A30 RMK A01 T00790002  RH  058%=      5-min Rain = 0
KFR1 190745Z 20002KT 08/00 A30 RMK A01 T00800001  RH  058%=      5-min Rain = 0
KFR1 190746Z 20002KT 08/00 A30 RMK A01 T00820001  RH  057%=      5-min Rain = 0
KFR1 190747Z 20002KT 08/00 A30 RMK A01 T00830001  RH  056%=      5-min Rain = 0
KFR1 190748Z 21002KT 08/00 A30 RMK A01 T00840001  RH  056%=      5-min Rain = 0
KFR1 190749Z 21001KT 09/00 A30 RMK A01 T00850001  RH  055%=      5-min Rain = 0
KFR1 190750Z 21001KT 09/00 A30 RMK A01 T00860001  RH  055%=      5-min Rain = 0
KFR1 190751Z 21001KT 09/00 A30 RMK A01 T00860001  RH  055%=      5-min Rain = 0
KFR1 190752Z 21001KT 09/00 A30 RMK A01 T00860001  RH  055%=      5-min Rain = 0
KFR1 190753Z 21001KT 09/00 A30 RMK A01 T00870001  RH  055%=      5-min Rain = 0
KFR1 190754Z 21002KT 09/00 A2999 RMK A01 T00870001  RH  054%=      5-min Rain = 0
KFR1 190755Z 21002KT 09/00 A2999 RMK A01 T00880001  RH  054%=      5-min Rain = 0
KFR1 190756Z 21002KT 09/00 A2999 RMK A01 T00880001  RH  054%=      5-min Rain = 0
KFR1 190757Z 20002KT 09/00 A2999 RMK A01 T00880001  RH  054%=      5-min Rain = 0
KFR1 190758Z 20002KT 09/00 A2999 RMK A01 T00880001  RH  054%=      5-min Rain = 0
KFR1 190759Z 20002KT 09/00 A2999 RMK A01 T00870000  RH  055%=      5-min Rain = 0
KFR1 190800Z 20002KT 09/00 A2999 RMK A01 T00860000  RH  055%=      5-min Rain = 0
KFR1 190801Z 20002KT 09/00 A2999 RMK A01 T00860001  RH  055%=      5-min Rain = 0
KFR1 190802Z 20002KT 09/00 A2999 RMK A01 T00850001  RH  055%=      5-min Rain = 0
KFR1 190803Z 21002KT 08/00 A2999 RMK A01 T00840000  RH  056%=      5-min Rain = 0
KFR1 190804Z 21002KT 08/00 A2999 RMK A01 T00820000  RH  056%=      5-min Rain = 0
KFR1 190805Z 21002KT 08/00 A2999 RMK A01 T00820000  RH  056%=      5-min Rain = 0
KFR1 190806Z 21002KT 08/00 A30 RMK A01 T00820000  RH  056%=      5-min Rain = 0
KFR1 190807Z 20001KT 08/00 A30 RMK A01 T00810000  RH  057%=      5-min Rain = 0
KFR1 190808Z 00000KT 08/00 A30 RMK A01 T00800002  RH  058%=      5-min Rain = 0
KFR1 190809Z 20000KT 08/00 A30 RMK A01 T00790002  RH  058%=      5-min Rain = 0
KFR1 190810Z 20001KT 08/00 A30 RMK A01 T00780002  RH  058%=      5-min Rain = 0
KFR1 190811Z 20001KT 08/00 A30 RMK A01 T00780001  RH  058%=      5-min Rain = 0
KFR1 190812Z 20000KT 08/00 A30 RMK A01 T00790001  RH  058%=      5-min Rain = 0
KFR1 190813Z 00000KT 08/00 A30 RMK A01 T00790001  RH  058%=      5-min Rain = 0
KFR1 190814Z 20000KT 08/00 A30 RMK A01 T00790001  RH  058%=      5-min Rain = 0
KFR1 190815Z 20001KT 08/00 A30 RMK A01 T00790000  RH  057%=      5-min Rain = 0
KFR1 190816Z 20002KT 08/00 A30 RMK A01 T00800000  RH  057%=      5-min Rain = 0
KFR1 190817Z 20001KT 08/00 A30 RMK A01 T00800000  RH  057%=      5-min Rain = 0
KFR1 190818Z 20001KT 08/00 A30 RMK A01 T00800000  RH  057%=      5-min Rain = 0
KFR1 190819Z 20000KT 08/00 A30 RMK A01 T00800000  RH  057%=      5-min Rain = 0
KFR1 190820Z 20001KT 08/00 A30 RMK A01 T00780004  RH  059%=      5-min Rain = 0
KFR1 190821Z 20000KT 08/01 A30 RMK A01 T00750005  RH  061%=      5-min Rain = 0
KFR1 190822Z 00000KT 07/01 A30 RMK A01 T00740005  RH  062%=      5-min Rain = 0
KFR1 190823Z 20000KT 07/00 A30 RMK A01 T00740003  RH  061%=      5-min Rain = 0
KFR1 190824Z 21001KT 07/00 A30 RMK A01 T00730003  RH  061%=      5-min Rain = 0
KFR1 190825Z 22002KT 07/00 A30 RMK A01 T00730002  RH  061%=      5-min Rain = 0
KFR1 190826Z 21002KT 07/00 A30 RMK A01 T00730004  RH  062%=      5-min Rain = 0
KFR1 190827Z 21002KT 07/01 A30 RMK A01 T00710008  RH  064%=      5-min Rain = 0
KFR1 190828Z 20002KT 07/01 A30 RMK A01 T00690011  RH  067%=      5-min Rain = 0
KFR1 190829Z 19001KT 07/01 A30 RMK A01 T00670012  RH  068%=      5-min Rain = 0
KFR1 190830Z 18001KT 07/01 A30 RMK A01 T00660007  RH  066%=      5-min Rain = 0
KFR1 190831Z 18000KT 07/01 A30 RMK A01 T00660006  RH  065%=      5-min Rain = 0
KFR1 190832Z 00000KT 07/00 A30 RMK A01 T00650004  RH  065%=      5-min Rain = 0
KFR1 190833Z 18000KT 07/00 A30 RMK A01 T00650002  RH  064%=      5-min Rain = 0
KFR1 190834Z 17002KT 07/00 A30 RMK A01 T00650001  RH  064%=      5-min Rain = 0
KFR1 190835Z 17002KT 07/00 A30 RMK A01 T00660002  RH  064%=      5-min Rain = 0
KFR1 190836Z 17002KT 07/00 A30 RMK A01 T00670002  RH  063%=      5-min Rain = 0
KFR1 190837Z 17002KT 07/00 A30 RMK A01 T00700002  RH  062%=      5-min Rain = 0
KFR1 190838Z 17001KT 08/00 A30 RMK A01 T00760004  RH  060%=      5-min Rain = 0
KFR1 190839Z 17001KT 08/00 A2999 RMK A01 T00790003  RH  059%=      5-min Rain = 0
KFR1 190840Z 17001KT 08/00 A2999 RMK A01 T00810003  RH  058%=      5-min Rain = 0
KFR1 190841Z 16001KT 08/00 A2999 RMK A01 T00830003  RH  057%=      5-min Rain = 0
KFR1 190842Z 12001KT 08/00 A2999 RMK A01 T00800000  RH  057%=      5-min Rain = 0
KFR1 190843Z 10002KT 08/00 A2999 RMK A01 T00770000  RH  058%=      5-min Rain = 0
KFR1 190844Z 10002KT 07/00 A2999 RMK A01 T00740001  RH  059%=      5-min Rain = 0
KFR1 190845Z 07002KT 07/00 A2999 RMK A01 T00730003  RH  061%=      5-min Rain = 0
KFR1 190846Z 07002KT 07/00 A2999 RMK A01 T00710003  RH  062%=      5-min Rain = 0
KFR1 190847Z 07002KT 07/00 A2999 RMK A01 T00690004  RH  063%=      5-min Rain = 0
KFR1 190848Z 07002KT 07/01 A2999 RMK A01 T00680005  RH  064%=      5-min Rain = 0
KFR1 190849Z 08002KT 07/01 A2999 RMK A01 T00670005  RH  065%=      5-min Rain = 0
KFR1 190850Z 08001KT 07/01 A2999 RMK A01 T00660006  RH  066%=      5-min Rain = 0
KFR1 190851Z 07001KT 07/01 A2999 RMK A01 T00660008  RH  066%=      5-min Rain = 0
KFR1 190852Z 31001KT 07/01 A2999 RMK A01 T00650007  RH  066%=      5-min Rain = 0
KFR1 190853Z 32002KT 06/01 A2999 RMK A01 T00640006  RH  067%=      5-min Rain = 0
KFR1 190854Z 33002KT 07/01 A2999 RMK A01 T00650007  RH  066%=      5-min Rain = 0
KFR1 190855Z 35001KT 07/01 A2999 RMK A01 T00670008  RH  066%=      5-min Rain = 0
KFR1 190856Z 01001KT 07/01 A2999 RMK A01 T00680007  RH  065%=      5-min Rain = 0
KFR1 190857Z 03001KT 07/01 A2999 RMK A01 T00690006  RH  064%=      5-min Rain = 0
KFR1 190858Z 04001KT 07/01 A2999 RMK A01 T00700007  RH  064%=      5-min Rain = 0
KFR1 190859Z 08001KT 07/01 A2999 RMK A01 T00700008  RH  065%=      5-min Rain = 0
KFR1 190900Z 09002KT 07/01 A2999 RMK A01 T00700008  RH  065%=      5-min Rain = 0
KFR1 190901Z 09002KT 07/01 A2999 RMK A01 T00700008  RH  065%=      5-min Rain = 0
KFR1 190902Z 09002KT 07/01 A2999 RMK A01 T00690008  RH  065%=      5-min Rain = 0
KFR1 190903Z 08002KT 07/01 A2999 RMK A01 T00670007  RH  066%=      5-min Rain = 0
KFR1 190904Z 05001KT 07/01 A2999 RMK A01 T00670007  RH  066%=      5-min Rain = 0
KFR1 190905Z 30001KT 07/01 A2999 RMK A01 T00650007  RH  066%=      5-min Rain = 0
KFR1 190906Z 31002KT 06/01 A2999 RMK A01 T00630008  RH  068%=      5-min Rain = 0
KFR1 190907Z 34002KT 06/01 A2999 RMK A01 T00610009  RH  069%=      5-min Rain = 0
KFR1 190908Z 35002KT 06/01 A2999 RMK A01 T00590012  RH  072%=      5-min Rain = 0
KFR1 190909Z 02002KT 06/01 A2999 RMK A01 T00580014  RH  073%=      5-min Rain = 0
KFR1 190910Z 03002KT 06/01 A2999 RMK A01 T00580014  RH  074%=      5-min Rain = 0
KFR1 190911Z 04002KT 06/01 A2998 RMK A01 T00580014  RH  074%=      5-min Rain = 0
KFR1 190912Z 04002KT 06/02 A2998 RMK A01 T00580015  RH  074%=      5-min Rain = 0
KFR1 190913Z 04002KT 06/02 A2998 RMK A01 T00570015  RH  074%=      5-min Rain = 0
KFR1 190914Z 04001KT 06/01 A2998 RMK A01 T00570014  RH  074%=      5-min Rain = 0
KFR1 190915Z 04001KT 06/01 A2998 RMK A01 T00570014  RH  074%=      5-min Rain = 0
KFR1 190916Z 04001KT 06/02 A2998 RMK A01 T00570015  RH  074%=      5-min Rain = 0
KFR1 190917Z 04000KT 06/02 A2998 RMK A01 T00570015  RH  075%=      5-min Rain = 0
KFR1 190918Z 00000KT 06/01 A2998 RMK A01 T00560014  RH  074%=      5-min Rain = 0
KFR1 190919Z 00000KT 06/01 A2998 RMK A01 T00560013  RH  074%=      5-min Rain = 0
KFR1 190920Z 00000KT 06/01 A2998 RMK A01 T00550012  RH  074%=      5-min Rain = 0
KFR1 190921Z 00000KT 05/01 A2998 RMK A01 T00540010  RH  074%=      5-min Rain = 0
KFR1 190922Z 00000KT 05/01 A2998 RMK A01 T00530013  RH  075%=      5-min Rain = 0
KFR1 190923Z 00000KT 05/02 A2998 RMK A01 T00540018  RH  077%=      5-min Rain = 0
KFR1 190924Z 00000KT 06/02 A2998 RMK A01 T00570022  RH  078%=      5-min Rain = 0
KFR1 190925Z 00000KT 06/02 A2998 RMK A01 T00590024  RH  078%=      5-min Rain = 0
KFR1 190926Z 00000KT 06/02 A2998 RMK A01 T00600024  RH  077%=      5-min Rain = 0
KFR1 190927Z 00000KT 06/02 A2998 RMK A01 T00600022  RH  076%=      5-min Rain = 0
KFR1 190928Z 04001KT 06/02 A2998 RMK A01 T00590020  RH  076%=      5-min Rain = 0
KFR1 190929Z 04001KT 06/02 A2998 RMK A01 T00580021  RH  077%=      5-min Rain = 0
KFR1 190930Z 04001KT 06/02 A2998 RMK A01 T00580020  RH  077%=      5-min Rain = 0
KFR1 190931Z 04001KT 06/02 A2998 RMK A01 T00570020  RH  077%=      5-min Rain = 0
KFR1 190932Z 04001KT 06/02 A2998 RMK A01 T00560019  RH  077%=      5-min Rain = 0
KFR1 190933Z 04000KT 06/02 A2998 RMK A01 T00560019  RH  077%=      5-min Rain = 0
KFR1 190934Z 04001KT 06/02 A2998 RMK A01 T00560020  RH  078%=      5-min Rain = 0
KFR1 190935Z 04001KT 05/02 A2998 RMK A01 T00540020  RH  079%=      5-min Rain = 0
KFR1 190936Z 04001KT 05/02 A2998 RMK A01 T00540021  RH  079%=      5-min Rain = 0
KFR1 190937Z 00000KT 05/02 A2997 RMK A01 T00530021  RH  080%=      5-min Rain = 0
KFR1 190938Z 00000KT 05/02 A2997 RMK A01 T00530021  RH  080%=      5-min Rain = 0
KFR1 190939Z 00000KT 05/02 A2997 RMK A01 T00530021  RH  080%=      5-min Rain = 0
KFR1 190940Z 00000KT 05/02 A2997 RMK A01 T00530020  RH  079%=      5-min Rain = 0
KFR1 190941Z 00000KT 05/02 A2997 RMK A01 T00530020  RH  079%=      5-min Rain = 0
KFR1 190942Z 00000KT 05/02 A2997 RMK A01 T00520020  RH  079%=      5-min Rain = 0
KFR1 190943Z 00000KT 05/02 A2997 RMK A01 T00520020  RH  079%=      5-min Rain = 0
KFR1 190944Z 00000KT 05/02 A2997 RMK A01 T00530022  RH  081%=      5-min Rain = 0
KFR1 190945Z 00000KT 05/02 A2997 RMK A01 T00530021  RH  080%=      5-min Rain = 0
KFR1 190946Z 04000KT 05/02 A2997 RMK A01 T00540021  RH  079%=      5-min Rain = 0
KFR1 190947Z 04001KT 06/02 A2997 RMK A01 T00550021  RH  079%=      5-min Rain = 0
KFR1 190948Z 04001KT 05/02 A2997 RMK A01 T00540021  RH  079%=      5-min Rain = 0
KFR1 190949Z 04001KT 05/02 A2997 RMK A01 T00540021  RH  079%=      5-min Rain = 0
KFR1 190950Z 04001KT 05/02 A2997 RMK A01 T00540021  RH  079%=      5-min Rain = 0
KFR1 190951Z 04001KT 05/02 A2997 RMK A01 T00540020  RH  079%=      5-min Rain = 0
KFR1 190952Z 04001KT 05/02 A2997 RMK A01 T00540017  RH  077%=      5-min Rain = 0
KFR1 190953Z 04000KT 05/02 A2997 RMK A01 T00540016  RH  076%=      5-min Rain = 0
KFR1 190954Z 04000KT 05/02 A2997 RMK A01 T00540015  RH  076%=      5-min Rain = 0
KFR1 190955Z 00000KT 05/02 A2997 RMK A01 T00540015  RH  076%=      5-min Rain = 0
KFR1 190956Z 00000KT 05/01 A2997 RMK A01 T00540014  RH  076%=      5-min Rain = 0
KFR1 190957Z 00000KT 05/01 A2997 RMK A01 T00540014  RH  075%=      5-min Rain = 0
KFR1 190958Z 00000KT 05/01 A2997 RMK A01 T00540014  RH  075%=      5-min Rain = 0
KFR1 190959Z 00000KT 05/02 A2996 RMK A01 T00540015  RH  076%=      5-min Rain = 0
KFR1 191000Z 04000KT 05/02 A2996 RMK A01 T00540017  RH  077%=      5-min Rain = 0
KFR1 191001Z 04001KT 06/02 A2996 RMK A01 T00550017  RH  077%=      5-min Rain = 0
KFR1 191002Z 04001KT 06/02 A2996 RMK A01 T00550017  RH  076%=      5-min Rain = 0
KFR1 191003Z 04001KT 06/02 A2996 RMK A01 T00560016  RH  076%=      5-min Rain = 0
KFR1 191004Z 04001KT 06/01 A2996 RMK A01 T00560014  RH  074%=      5-min Rain = 0
KFR1 191005Z 04001KT 06/01 A2996 RMK A01 T00550013  RH  074%=      5-min Rain = 0
KFR1 191006Z 04001KT 05/01 A2996 RMK A01 T00540013  RH  075%=      5-min Rain = 0
KFR1 191007Z 04000KT 05/01 A2996 RMK A01 T00540014  RH  075%=      5-min Rain = 0
KFR1 191008Z 04000KT 05/01 A2996 RMK A01 T00530013  RH  076%=      5-min Rain = 0
KFR1 191009Z 04001KT 05/01 A2996 RMK A01 T00520014  RH  076%=      5-min Rain = 0
KFR1 191010Z 04000KT 05/01 A2996 RMK A01 T00520014  RH  076%=      5-min Rain = 0
KFR1 191011Z 04000KT 05/02 A2997 RMK A01 T00510015  RH  077%=      5-min Rain = 0
KFR1 191012Z 04000KT 05/02 A2997 RMK A01 T00520018  RH  079%=      5-min Rain = 0
KFR1 191013Z 04000KT 05/02 A2997 RMK A01 T00510016  RH  078%=      5-min Rain = 0
KFR1 191014Z 00000KT 05/02 A2996 RMK A01 T00510015  RH  078%=      5-min Rain = 0
KFR1 191015Z 00000KT 05/02 A2996 RMK A01 T00510018  RH  079%=      5-min Rain = 0
KFR1 191016Z 00000KT 05/02 A2996 RMK A01 T00510020  RH  081%=      5-min Rain = 0
KFR1 191017Z 00000KT 05/02 A2996 RMK A01 T00510021  RH  081%=      5-min Rain = 0
KFR1 191018Z 00000KT 05/02 A2997 RMK A01 T00510021  RH  081%=      5-min Rain = 0
KFR1 191019Z 04000KT 05/02 A2997 RMK A01 T00510020  RH  081%=      5-min Rain = 0
KFR1 191020Z 00000KT 05/02 A2997 RMK A01 T00510021  RH  081%=      5-min Rain = 0
KFR1 191021Z 00000KT 05/02 A2997 RMK A01 T00510021  RH  081%=      5-min Rain = 0
KFR1 191022Z 00000KT 05/02 A2997 RMK A01 T00510021  RH  081%=      5-min Rain = 0
KFR1 191023Z 00000KT 05/02 A2997 RMK A01 T00500021  RH  081%=      5-min Rain = 0
KFR1 191024Z 00000KT 05/02 A2997 RMK A01 T00500021  RH  081%=      5-min Rain = 0
KFR1 191025Z 00000KT 05/02 A2997 RMK A01 T00510022  RH  081%=      5-min Rain = 0
KFR1 191026Z 00000KT 05/02 A2997 RMK A01 T00510022  RH  082%=      5-min Rain = 0
KFR1 191027Z 00000KT 05/02 A2997 RMK A01 T00510022  RH  082%=      5-min Rain = 0
KFR1 191028Z 00000KT 05/02 A2996 RMK A01 T00500022  RH  082%=      5-min Rain = 0
KFR1 191029Z 00000KT 05/02 A2996 RMK A01 T00500022  RH  082%=      5-min Rain = 0
KFR1 191030Z 00000KT 05/02 A2996 RMK A01 T00500023  RH  083%=      5-min Rain = 0
KFR1 191031Z 00000KT 05/02 A2996 RMK A01 T00500023  RH  083%=      5-min Rain = 0
KFR1 191032Z 00000KT 05/02 A2996 RMK A01 T00500023  RH  083%=      5-min Rain = 0
KFR1 191033Z 00000KT 05/02 A2996 RMK A01 T00500023  RH  083%=      5-min Rain = 0
KFR1 191034Z 04000KT 05/02 A2996 RMK A01 T00500021  RH  082%=      5-min Rain = 0
KFR1 191035Z 04001KT 05/02 A2996 RMK A01 T00500019  RH  081%=      5-min Rain = 0
KFR1 191036Z 04001KT 05/02 A2996 RMK A01 T00490019  RH  081%=      5-min Rain = 0
KFR1 191037Z 04001KT 05/02 A2996 RMK A01 T00490020  RH  081%=      5-min Rain = 0
KFR1 191038Z 04001KT 05/02 A2996 RMK A01 T00490021  RH  082%=      5-min Rain = 0
KFR1 191039Z 04001KT 05/02 A2996 RMK A01 T00490021  RH  082%=      5-min Rain = 0
KFR1 191040Z 04001KT 05/02 A2996 RMK A01 T00490022  RH  082%=      5-min Rain = 0
KFR1 191041Z 04001KT 05/02 A2996 RMK A01 T00500023  RH  083%=      5-min Rain = 0
KFR1 191042Z 04001KT 05/02 A2996 RMK A01 T00510024  RH  083%=      5-min Rain = 0
KFR1 191043Z 04001KT 05/02 A2996 RMK A01 T00510022  RH  082%=      5-min Rain = 0
KFR1 191044Z 04002KT 05/02 A2996 RMK A01 T00510018  RH  079%=      5-min Rain = 0
KFR1 191045Z 04002KT 05/01 A2996 RMK A01 T00490013  RH  077%=      5-min Rain = 0
KFR1 191046Z 04002KT 05/01 A2996 RMK A01 T00470011  RH  077%=      5-min Rain = 0
KFR1 191047Z 04002KT 05/01 A2996 RMK A01 T00450009  RH  077%=      5-min Rain = 0
KFR1 191048Z 04002KT 04/01 A2996 RMK A01 T00440009  RH  078%=      5-min Rain = 0
KFR1 191049Z 04002KT 04/01 A2996 RMK A01 T00440013  RH  080%=      5-min Rain = 0
KFR1 191050Z 04002KT 05/01 A2996 RMK A01 T00450014  RH  081%=      5-min Rain = 0
KFR1 191051Z 04002KT 05/02 A2996 RMK A01 T00460017  RH  081%=      5-min Rain = 0
KFR1 191052Z 33002KT 05/01 A2996 RMK A01 T00480014  RH  079%=      5-min Rain = 0
KFR1 191053Z 25003KT 05/01 A2996 RMK A01 T00460009  RH  076%=      5-min Rain = 0
KFR1 191054Z 24003KT 04/01 A2996 RMK A01 T00440008  RH  077%=      5-min Rain = 0
KFR1 191055Z 25003KT 04/01 A2996 RMK A01 T00430010  RH  079%=      5-min Rain = 0
KFR1 191056Z 23002KT 04/01 A2996 RMK A01 T00440012  RH  080%=      5-min Rain = 0
KFR1 191057Z 21002KT 05/01 A2996 RMK A01 T00450011  RH  079%=      5-min Rain = 0
KFR1 191058Z 21002KT 05/01 A2996 RMK A01 T00460007  RH  076%=      5-min Rain = 0
KFR1 191059Z 22002KT 05/00 A2996 RMK A01 T00470004  RH  074%=      5-min Rain = 0
KFR1 191100Z 22003KT 05/00 A2996 RMK A01 T00480003  RH  073%=      5-min Rain = 0
KFR1 191101Z 22003KT 05/00 A2996 RMK A01 T00480003  RH  072%=      5-min Rain = 0
KFR1 191102Z 21002KT 05/00 A2996 RMK A01 T00490003  RH  072%=      5-min Rain = 0
KFR1 191103Z 22002KT 05/00 A2996 RMK A01 T00490002  RH  071%=      5-min Rain = 0
KFR1 191104Z 22002KT 05/00 A2996 RMK A01 T00490000  RH  071%=      5-min Rain = 0
KFR1 191105Z 22002KT 05/00 A2995 RMK A01 T004900-0  RH  070%=      5-min Rain = 0
KFR1 191106Z 22002KT 05/M00 A2995 RMK A01 T00491001  RH  070%=      5-min Rain = 0
KFR1 191107Z 22002KT 05/M00 A2995 RMK A01 T00491001  RH  070%=      5-min Rain = 0
KFR1 191108Z 23002KT 05/M00 A2995 RMK A01 T00481001  RH  070%=      5-min Rain = 0
KFR1 191109Z 22002KT 05/M00 A2996 RMK A01 T00481001  RH  071%=      5-min Rain = 0
KFR1 191110Z 23001KT 05/M00 A2995 RMK A01 T00471001  RH  071%=      5-min Rain = 0
KFR1 191111Z 23002KT 05/M00 A2995 RMK A01 T00461001  RH  071%=      5-min Rain = 0
KFR1 191112Z 23001KT 05/M00 A2995 RMK A01 T00461001  RH  071%=      5-min Rain = 0
KFR1 191113Z 22001KT 05/M00 A2995 RMK A01 T00461001  RH  071%=      5-min Rain = 0
KFR1 191114Z 22001KT 05/M00 A2995 RMK A01 T00461002  RH  071%=      5-min Rain = 0
KFR1 191115Z 22001KT 05/M00 A2995 RMK A01 T00461002  RH  071%=      5-min Rain = 0
KFR1 191116Z 22001KT 05/M00 A2995 RMK A01 T00461003  RH  071%=      5-min Rain = 0
KFR1 191117Z 22001KT 05/M00 A2995 RMK A01 T00471003  RH  070%=      5-min Rain = 0
KFR1 191118Z 22001KT 05/M00 A2995 RMK A01 T00471003  RH  070%=      5-min Rain = 0
KFR1 191119Z 22001KT 05/M00 A2995 RMK A01 T00471003  RH  070%=      5-min Rain = 0
KFR1 191120Z 22001KT 05/M00 A2995 RMK A01 T00481003  RH  070%=      5-min Rain = 0
KFR1 191121Z 22001KT 05/M00 A2995 RMK A01 T00491002  RH  069%=      5-min Rain = 0
KFR1 191122Z 22001KT 05/M00 A2995 RMK A01 T00491003  RH  069%=      5-min Rain = 0
KFR1 191123Z 00000KT 05/M00 A2995 RMK A01 T00491003  RH  069%=      5-min Rain = 0
KFR1 191124Z 00000KT 05/M00 A2995 RMK A01 T00491004  RH  069%=      5-min Rain = 0
KFR1 191125Z 00000KT 05/M00 A2995 RMK A01 T00481004  RH  069%=      5-min Rain = 0
KFR1 191126Z 22000KT 05/M00 A2995 RMK A01 T00481003  RH  070%=      5-min Rain = 0
KFR1 191127Z 22001KT 05/M00 A2995 RMK A01 T00481003  RH  070%=      5-min Rain = 0
KFR1 191128Z 22001KT 05/M00 A2995 RMK A01 T00491003  RH  069%=      5-min Rain = 0
KFR1 191129Z 23002KT 05/M00 A2995 RMK A01 T00501002  RH  069%=      5-min Rain = 0
KFR1 191130Z 23002KT 05/M00 A2995 RMK A01 T00511003  RH  068%=      5-min Rain = 0
KFR1 191131Z 24002KT 05/M00 A2995 RMK A01 T00511003  RH  068%=      5-min Rain = 0
KFR1 191132Z 24002KT 05/M00 A2995 RMK A01 T00511003  RH  068%=      5-min Rain = 0
KFR1 191133Z 24002KT 05/M00 A2995 RMK A01 T00511003  RH  068%=      5-min Rain = 0
KFR1 191134Z 23002KT 05/M00 A2995 RMK A01 T00511003  RH  068%=      5-min Rain = 0
KFR1 191135Z 24002KT 05/M00 A2995 RMK A01 T00491003  RH  069%=      5-min Rain = 0
KFR1 191136Z 24002KT 05/M00 A2995 RMK A01 T00491003  RH  069%=      5-min Rain = 0
KFR1 191137Z 24002KT 05/M00 A2995 RMK A01 T00491003  RH  069%=      5-min Rain = 0
KFR1 191138Z 24002KT 05/M00 A2995 RMK A01 T00481003  RH  069%=      5-min Rain = 0
KFR1 191139Z 24002KT 05/M00 A2995 RMK A01 T00491003  RH  069%=      5-min Rain = 0
KFR1 191140Z 24002KT 05/M00 A2995 RMK A01 T00481003  RH  069%=      5-min Rain = 0
KFR1 191141Z 24002KT 05/M00 A2995 RMK A01 T00471004  RH  070%=      5-min Rain = 0
KFR1 191142Z 24002KT 05/M00 A2995 RMK A01 T00461003  RH  070%=      5-min Rain = 0
KFR1 191143Z 25002KT 05/M00 A2995 RMK A01 T00461003  RH  070%=      5-min Rain = 0
KFR1 191144Z 25002KT 05/M00 A2995 RMK A01 T00461004  RH  070%=      5-min Rain = 0
KFR1 191145Z 25002KT 05/M00 A2995 RMK A01 T00451004  RH  071%=      5-min Rain = 0
KFR1 191146Z 25002KT 04/M00 A2995 RMK A01 T00441004  RH  071%=      5-min Rain = 0
KFR1 191147Z 25002KT 04/M00 A2995 RMK A01 T00441004  RH  071%=      5-min Rain = 0
KFR1 191148Z 25002KT 04/M00 A2995 RMK A01 T00441003  RH  071%=      5-min Rain = 0
KFR1 191149Z 25002KT 04/M00 A2995 RMK A01 T00441003  RH  071%=      5-min Rain = 0
KFR1 191150Z 25002KT 04/M00 A2995 RMK A01 T00441003  RH  071%=      5-min Rain = 0
KFR1 191151Z 25002KT 05/M00 A2995 RMK A01 T00451003  RH  071%=      5-min Rain = 0
KFR1 191152Z 25001KT 05/M00 A2994 RMK A01 T00451003  RH  071%=      5-min Rain = 0
KFR1 191153Z 25001KT 05/M00 A2994 RMK A01 T00451003  RH  071%=      5-min Rain = 0
KFR1 191154Z 25001KT 05/M00 A2994 RMK A01 T00451002  RH  071%=      5-min Rain = 0
KFR1 191155Z 25001KT 05/M00 A2994 RMK A01 T00461002  RH  071%=      5-min Rain = 0
KFR1 191156Z 25001KT 05/M00 A2994 RMK A01 T00471002  RH  070%=      5-min Rain = 0
KFR1 191157Z 25001KT 05/M00 A2994 RMK A01 T00481002  RH  070%=      5-min Rain = 0
KFR1 191158Z 25001KT 05/M00 A2994 RMK A01 T00491002  RH  069%=      5-min Rain = 0
KFR1 191159Z 24002KT 05/M00 A2994 RMK A01 T00501002  RH  069%=      5-min Rain = 0
KFR1 191200Z 24002KT 05/M00 A2994 RMK A01 T00501003  RH  069%=      5-min Rain = 0
KFR1 191201Z 23002KT 05/M00 A2994 RMK A01 T00491003  RH  069%=      5-min Rain = 0
KFR1 191202Z 23001KT 05/M00 A2994 RMK A01 T00481003  RH  069%=      5-min Rain = 0
KFR1 191203Z 22001KT 05/M00 A2994 RMK A01 T00481003  RH  070%=      5-min Rain = 0
KFR1 191204Z 22001KT 05/M00 A2994 RMK A01 T00481002  RH  070%=      5-min Rain = 0
KFR1 191205Z 21002KT 05/M00 A2994 RMK A01 T00501002  RH  069%=      5-min Rain = 0
KFR1 191206Z 21002KT 05/M00 A2994 RMK A01 T00511002  RH  069%=      5-min Rain = 0
KFR1 191207Z 21002KT 05/M00 A2994 RMK A01 T00511002  RH  068%=      5-min Rain = 0
KFR1 191208Z 21003KT 05/M00 A2994 RMK A01 T00521002  RH  068%=      5-min Rain = 0
KFR1 191209Z 21003KT 05/M00 A2994 RMK A01 T00521002  RH  068%=      5-min Rain = 0
KFR1 191210Z 21003KT 05/M00 A2994 RMK A01 T00531002  RH  068%=      5-min Rain = 0
KFR1 191211Z 21002KT 06/M00 A2994 RMK A01 T00551001  RH  067%=      5-min Rain = 0
KFR1 191212Z 21001KT 06/M00 A2994 RMK A01 T00561001  RH  067%=      5-min Rain = 0
KFR1 191213Z 18001KT 06/M00 A2994 RMK A01 T00561002  RH  066%=      5-min Rain = 0
KFR1 191214Z 17001KT 06/M00 A2994 RMK A01 T00571001  RH  066%=      5-min Rain = 0
KFR1 191215Z 15001KT 06/M00 A2994 RMK A01 T00571001  RH  066%=      5-min Rain = 0
KFR1 191216Z 15000KT 06/M00 A2994 RMK A01 T00581001  RH  066%=      5-min Rain = 0
KFR1 191217Z 14000KT 06/M00 A2994 RMK A01 T00581001  RH  066%=      5-min Rain = 0
KFR1 191218Z 18001KT 06/M00 A2994 RMK A01 T00581002  RH  066%=      5-min Rain = 0
KFR1 191219Z 19001KT 06/M00 A2994 RMK A01 T00561003  RH  066%=      5-min Rain = 0
KFR1 191220Z 21001KT 05/M00 A2994 RMK A01 T00541003  RH  067%=      5-min Rain = 0
KFR1 191221Z 22001KT 05/M00 A2994 RMK A01 T00531003  RH  067%=      5-min Rain = 0
KFR1 191222Z 27001KT 05/M00 A2994 RMK A01 T00521003  RH  068%=      5-min Rain = 0
KFR1 191223Z 27001KT 05/M00 A2994 RMK A01 T00521002  RH  068%=      5-min Rain = 0
KFR1 191224Z 26000KT 05/M00 A2994 RMK A01 T00511002  RH  068%=      5-min Rain = 0
KFR1 191225Z 00000KT 05/M00 A2994 RMK A01 T00501002  RH  069%=      5-min Rain = 0
KFR1 191226Z 00000KT 05/M00 A2994 RMK A01 T00511002  RH  069%=      5-min Rain = 0
KFR1 191227Z 00000KT 05/M00 A2994 RMK A01 T00511002  RH  069%=      5-min Rain = 0
KFR1 191228Z 00000KT 05/M00 A2994 RMK A01 T00511001  RH  069%=      5-min Rain = 0
KFR1 191229Z 00000KT 05/M00 A2994 RMK A01 T00521001  RH  069%=      5-min Rain = 0
KFR1 191230Z 17001KT 05/00 A2994 RMK A01 T00540000  RH  068%=      5-min Rain = 0
KFR1 191231Z 17000KT 05/M00 A2994 RMK A01 T00541001  RH  068%=      5-min Rain = 0
KFR1 191232Z 00000KT 05/M00 A2994 RMK A01 T00521003  RH  068%=      5-min Rain = 0
KFR1 191233Z 00000KT 05/M00 A2994 RMK A01 T00501003  RH  069%=      5-min Rain = 0
KFR1 191234Z 05000KT 05/M00 A2994 RMK A01 T00481003  RH  070%=      5-min Rain = 0
KFR1 191235Z 05000KT 05/M00 A2994 RMK A01 T00471003  RH  070%=      5-min Rain = 0
KFR1 191236Z 07001KT 05/M00 A2994 RMK A01 T00471002  RH  070%=      5-min Rain = 0
KFR1 191237Z 09001KT 05/M00 A2994 RMK A01 T00461002  RH  071%=      5-min Rain = 0
KFR1 191238Z 08001KT 05/M00 A2994 RMK A01 T00461002  RH  071%=      5-min Rain = 0
KFR1 191239Z 08001KT 05/M00 A2994 RMK A01 T00451001  RH  072%=      5-min Rain = 0
KFR1 191240Z 09002KT 04/00 A2994 RMK A01 T00440000  RH  073%=      5-min Rain = 0
KFR1 191241Z 10001KT 04/00 A2994 RMK A01 T00430002  RH  075%=      5-min Rain = 0
KFR1 191242Z 12001KT 04/00 A2994 RMK A01 T00420002  RH  075%=      5-min Rain = 0
KFR1 191243Z 11001KT 04/00 A2994 RMK A01 T00420000  RH  074%=      5-min Rain = 0
KFR1 191244Z 12000KT 04/M00 A2994 RMK A01 T00421002  RH  073%=      5-min Rain = 0
KFR1 191245Z 00000KT 04/M00 A2994 RMK A01 T00431002  RH  073%=      5-min Rain = 0
KFR1 191246Z 00000KT 04/M00 A2994 RMK A01 T00431002  RH  073%=      5-min Rain = 0
KFR1 191247Z 00000KT 04/M00 A2994 RMK A01 T00431002  RH  072%=      5-min Rain = 0
KFR1 191248Z 00000KT 04/M00 A2994 RMK A01 T00441002  RH  072%=      5-min Rain = 0
KFR1 191249Z 00000KT 05/M00 A2994 RMK A01 T00461001  RH  072%=      5-min Rain = 0
KFR1 191250Z 00000KT 05/00 A2994 RMK A01 T004800-0  RH  071%=      5-min Rain = 0
KFR1 191251Z 00000KT 05/00 A2994 RMK A01 T00490000  RH  070%=      5-min Rain = 0
KFR1 191252Z 00000KT 05/00 A2994 RMK A01 T00510000  RH  070%=      5-min Rain = 0
KFR1 191253Z 00000KT 05/00 A2994 RMK A01 T00510001  RH  070%=      5-min Rain = 0
KFR1 191254Z 00000KT 05/00 A2994 RMK A01 T00530001  RH  069%=      5-min Rain = 0
KFR1 191255Z 00000KT 05/00 A2993 RMK A01 T00540001  RH  069%=      5-min Rain = 0
KFR1 191256Z 13000KT 06/00 A2993 RMK A01 T00550000  RH  068%=      5-min Rain = 0
KFR1 191257Z 13001KT 05/M00 A2994 RMK A01 T00531002  RH  067%=      5-min Rain = 0
KFR1 191258Z 13001KT 05/M00 A2994 RMK A01 T00511003  RH  068%=      5-min Rain = 0
KFR1 191259Z 13000KT 05/M00 A2994 RMK A01 T00491002  RH  070%=      5-min Rain = 0
KFR1 191300Z 13000KT 05/00 A2994 RMK A01 T00460001  RH  073%=      5-min Rain = 0
KFR1 191301Z 13001KT 04/00 A2994 RMK A01 T00430001  RH  074%=      5-min Rain = 0
KFR1 191302Z 13001KT 04/00 A2994 RMK A01 T00420002  RH  075%=      5-min Rain = 0
KFR1 191303Z 13001KT 04/01 A2994 RMK A01 T00420005  RH  077%=      5-min Rain = 0
KFR1 191304Z 13002KT 04/00 A2994 RMK A01 T00400004  RH  077%=      5-min Rain = 0
KFR1 191305Z 34002KT 04/01 A2994 RMK A01 T00380005  RH  079%=      5-min Rain = 0
KFR1 191306Z 35002KT 04/01 A2994 RMK A01 T00360005  RH  080%=      5-min Rain = 0
KFR1 191307Z 00002KT 04/01 A2994 RMK A01 T00350005  RH  081%=      5-min Rain = 0
KFR1 191308Z 36003KT 03/01 A2994 RMK A01 T00340006  RH  082%=      5-min Rain = 0
KFR1 191309Z 34003KT 03/01 A2994 RMK A01 T00340007  RH  083%=      5-min Rain = 0
KFR1 191310Z 32002KT 03/01 A2994 RMK A01 T00340006  RH  082%=      5-min Rain = 0
KFR1 191311Z 36002KT 03/01 A2994 RMK A01 T00330006  RH  083%=      5-min Rain = 0
KFR1 191312Z 01002KT 03/01 A2994 RMK A01 T00320006  RH  083%=      5-min Rain = 0
KFR1 191313Z 01002KT 03/01 A2994 RMK A01 T00310007  RH  084%=      5-min Rain = 0
KFR1 191314Z 01002KT 03/01 A2994 RMK A01 T00320009  RH  085%=      5-min Rain = 0
KFR1 191315Z 01001KT 03/01 A2994 RMK A01 T00310009  RH  085%=      5-min Rain = 0
KFR1 191316Z 01001KT 03/01 A2994 RMK A01 T00320009  RH  085%=      5-min Rain = 0
KFR1 191317Z 01000KT 03/01 A2994 RMK A01 T00310009  RH  085%=      5-min Rain = 0
KFR1 191318Z 19000KT 03/01 A2994 RMK A01 T00310010  RH  086%=      5-min Rain = 0
KFR1 191319Z 19001KT 03/01 A2994 RMK A01 T00320012  RH  087%=      5-min Rain = 0
KFR1 191320Z 19001KT 03/01 A2994 RMK A01 T00320012  RH  087%=      5-min Rain = 0
KFR1 191321Z 19001KT 03/01 A2994 RMK A01 T00330013  RH  087%=      5-min Rain = 0
KFR1 191322Z 18002KT 03/01 A2994 RMK A01 T00340013  RH  087%=      5-min Rain = 0
KFR1 191323Z 17002KT 03/01 A2994 RMK A01 T00340014  RH  086%=      5-min Rain = 0
KFR1 191324Z 18003KT 04/01 A2994 RMK A01 T00360012  RH  084%=      5-min Rain = 0
KFR1 191325Z 17003KT 04/01 A2994 RMK A01 T00380012  RH  083%=      5-min Rain = 0
KFR1 191326Z 18004KT 04/01 A2994 RMK A01 T00390012  RH  083%=      5-min Rain = 0
KFR1 191327Z 18005KT 04/01 A2994 RMK A01 T00390012  RH  083%=      5-min Rain = 0
KFR1 191328Z 19005KT 04/01 A2994 RMK A01 T00360009  RH  082%=      5-min Rain = 0
KFR1 191329Z 19006KT 03/00 A2993 RMK A01 T00320004  RH  082%=      5-min Rain = 0
KFR1 191330Z 20007KT 03/M00 A2993 RMK A01 T00281001  RH  081%=      5-min Rain = 0
KFR1 191331Z 20007KT 03/M00 A2993 RMK A01 T00261002  RH  082%=      5-min Rain = 0
KFR1 191332Z 20008KT 03/00 A2993 RMK A01 T002500-0  RH  083%=      5-min Rain = 0
KFR1 191333Z 20008KT 03/00 A2993 RMK A01 T00260000  RH  083%=      5-min Rain = 0
KFR1 191334Z 20008KT 03/00 A2993 RMK A01 T002700-0  RH  082%=      5-min Rain = 0
KFR1 191335Z 20009KT 03/00 A2993 RMK A01 T002800-0  RH  082%=      5-min Rain = 0
KFR1 191336Z 20009KT 03/00 A2993 RMK A01 T00310001  RH  081%=      5-min Rain = 0
KFR1 191337Z 20009KT 04/00 A2993 RMK A01 T00360002  RH  079%=      5-min Rain = 0
KFR1 191338Z 20009KT 04/00 A2993 RMK A01 T00410003  RH  076%=      5-min Rain = 0
KFR1 191339Z 20009KT 05/00 A2993 RMK A01 T00460003  RH  074%=      5-min Rain = 0
KFR1 191340Z 20008KT 05/00 A2993 RMK A01 T00510002  RH  071%=      5-min Rain = 0
KFR1 191341Z 20009KT 05/00 A2993 RMK A01 T00540002  RH  069%=      5-min Rain = 0
KFR1 191342Z 20008KT 06/00 A2993 RMK A01 T00550001  RH  068%=      5-min Rain = 0
KFR1 191343Z 20007KT 06/00 A2993 RMK A01 T00570000  RH  067%=      5-min Rain = 0
KFR1 191344Z 20007KT 06/M00 A2993 RMK A01 T00591001  RH  065%=      5-min Rain = 0
KFR1 191345Z 20006KT 06/M00 A2993 RMK A01 T00611002  RH  064%=      5-min Rain = 0
KFR1 191346Z 20005KT 06/M00 A2993 RMK A01 T00621002  RH  063%=      5-min Rain = 0
KFR1 191347Z 20004KT 06/M00 A2993 RMK A01 T00621002  RH  063%=      5-min Rain = 0
KFR1 191348Z 20002KT 06/M00 A2993 RMK A01 T00621001  RH  064%=      5-min Rain = 0
KFR1 191349Z 20002KT 06/00 A2993 RMK A01 T00580001  RH  067%=      5-min Rain = 0
KFR1 191350Z 20001KT 05/00 A2993 RMK A01 T00530002  RH  070%=      5-min Rain = 0
KFR1 191351Z 19001KT 05/00 A2993 RMK A01 T00510002  RH  070%=      5-min Rain = 0
KFR1 191352Z 19001KT 05/00 A2993 RMK A01 T00500001  RH  071%=      5-min Rain = 0
KFR1 191353Z 19002KT 05/00 A2993 RMK A01 T00500001  RH  070%=      5-min Rain = 0
KFR1 191354Z 19003KT 05/00 A2993 RMK A01 T00500002  RH  071%=      5-min Rain = 0
KFR1 191355Z 18003KT 05/00 A2993 RMK A01 T00510002  RH  070%=      5-min Rain = 0
KFR1 191356Z 19004KT 05/00 A2993 RMK A01 T00530002  RH  070%=      5-min Rain = 0
KFR1 191357Z 19004KT 05/00 A2993 RMK A01 T00530002  RH  069%=      5-min Rain = 0
KFR1 191358Z 19005KT 05/00 A2993 RMK A01 T00540001  RH  069%=      5-min Rain = 0
KFR1 191359Z 19005KT 06/00 A2993 RMK A01 T00550000  RH  068%=      5-min Rain = 0
KFR1 191400Z 19005KT 06/00 A2993 RMK A01 T00570001  RH  067%=      5-min Rain = 0
KFR1 191401Z 19006KT 06/00 A2993 RMK A01 T00590001  RH  066%=      5-min Rain = 0
KFR1 191402Z 19006KT 06/00 A2993 RMK A01 T00610001  RH  065%=      5-min Rain = 0
KFR1 191403Z 19007KT 06/00 A2993 RMK A01 T00630000  RH  064%=      5-min Rain = 0
KFR1 191404Z 19007KT 07/00 A2993 RMK A01 T00650001  RH  063%=      5-min Rain = 0
KFR1 191405Z 19007KT 07/00 A2993 RMK A01 T00660000  RH  063%=      5-min Rain = 0
KFR1 191406Z 19006KT 07/00 A2993 RMK A01 T00680001  RH  062%=      5-min Rain = 0
KFR1 191407Z 20006KT 07/00 A2993 RMK A01 T00680002  RH  063%=      5-min Rain = 0
KFR1 191408Z 20006KT 07/00 A2993 RMK A01 T00680001  RH  062%=      5-min Rain = 0
KFR1 191409Z 19005KT 07/00 A2993 RMK A01 T00690001  RH  062%=      5-min Rain = 0
KFR1 191410Z 20004KT 07/00 A2993 RMK A01 T00690002  RH  062%=      5-min Rain = 0
KFR1 191411Z 19004KT 07/00 A2993 RMK A01 T00690002  RH  062%=      5-min Rain = 0
KFR1 191412Z 20001KT 07/00 A2993 RMK A01 T00690003  RH  063%=      5-min Rain = 0
KFR1 191413Z 20001KT 07/00 A2993 RMK A01 T00660003  RH  064%=      5-min Rain = 0
KFR1 191414Z 22001KT 06/00 A2993 RMK A01 T00640002  RH  065%=      5-min Rain = 0
KFR1 191415Z 21003KT 06/00 A2993 RMK A01 T00610001  RH  065%=      5-min Rain = 0
KFR1 191416Z 20003KT 06/00 A2993 RMK A01 T00600002  RH  066%=      5-min Rain = 0
KFR1 191417Z 20003KT 06/00 A2993 RMK A01 T00580003  RH  068%=      5-min Rain = 0
KFR1 191418Z 20002KT 06/00 A2993 RMK A01 T00580004  RH  068%=      5-min Rain = 0
KFR1 191419Z 19001KT 06/01 A2993 RMK A01 T00580008  RH  070%=      5-min Rain = 0
KFR1 191420Z 19001KT 06/01 A2993 RMK A01 T00560012  RH  073%=      5-min Rain = 0
KFR1 191421Z 18002KT 05/01 A2993 RMK A01 T00540013  RH  075%=      5-min Rain = 0
KFR1 191422Z 16001KT 05/01 A2993 RMK A01 T00510012  RH  076%=      5-min Rain = 0
KFR1 191423Z 15001KT 05/01 A2993 RMK A01 T00490011  RH  077%=      5-min Rain = 0
KFR1 191424Z 14001KT 05/01 A2993 RMK A01 T00470012  RH  078%=      5-min Rain = 0
KFR1 191425Z 09001KT 05/01 A2993 RMK A01 T00460012  RH  078%=      5-min Rain = 0
KFR1 191426Z 08002KT 04/01 A2993 RMK A01 T00440010  RH  078%=      5-min Rain = 0
KFR1 191427Z 08002KT 04/01 A2993 RMK A01 T00430008  RH  078%=      5-min Rain = 0
KFR1 191428Z 07001KT 04/01 A2993 RMK A01 T00430010  RH  079%=      5-min Rain = 0
KFR1 191429Z 06002KT 04/01 A2993 RMK A01 T00420011  RH  080%=      5-min Rain = 0
KFR1 191430Z 07002KT 04/01 A2993 RMK A01 T00430010  RH  079%=      5-min Rain = 0
KFR1 191431Z 12001KT 04/01 A2993 RMK A01 T00430010  RH  079%=      5-min Rain = 0
KFR1 191432Z 15003KT 04/01 A2993 RMK A01 T00440011  RH  079%=      5-min Rain = 0
KFR1 191433Z 16003KT 04/01 A2993 RMK A01 T00440011  RH  079%=      5-min Rain = 0
KFR1 191434Z 16004KT 05/01 A2993 RMK A01 T00450011  RH  078%=      5-min Rain = 0
KFR1 191435Z 16003KT 05/01 A2992 RMK A01 T00470013  RH  078%=      5-min Rain = 0
KFR1 191436Z 17004KT 05/01 A2992 RMK A01 T00500014  RH  077%=      5-min Rain = 0
KFR1 191437Z 17004KT 06/02 A2992 RMK A01 T00550017  RH  077%=      5-min Rain = 0
KFR1 191438Z 18004KT 06/01 A2992 RMK A01 T00600014  RH  072%=      5-min Rain = 0
KFR1 191439Z 19003KT 07/01 A2992 RMK A01 T00650014  RH  070%=      5-min Rain = 0
KFR1 191440Z 21003KT 07/01 A2993 RMK A01 T00690014  RH  068%=      5-min Rain = 0
KFR1 191441Z 21003KT 07/01 A2992 RMK A01 T00720013  RH  067%=      5-min Rain = 0
KFR1 191442Z 21004KT 07/02 A2992 RMK A01 T00730015  RH  067%=      5-min Rain = 0
KFR1 191443Z 21004KT 07/01 A2992 RMK A01 T00730014  RH  066%=      5-min Rain = 0
KFR1 191444Z 21005KT 07/01 A2992 RMK A01 T00730013  RH  066%=      5-min Rain = 0
KFR1 191445Z 21005KT 07/01 A2992 RMK A01 T00740013  RH  065%=      5-min Rain = 0
KFR1 191446Z 21005KT 07/01 A2992 RMK A01 T00740012  RH  065%=      5-min Rain = 0
KFR1 191447Z 20004KT 07/01 A2992 RMK A01 T00740011  RH  064%=      5-min Rain = 0
KFR1 191448Z 20004KT 08/01 A2992 RMK A01 T00770012  RH  064%=      5-min Rain = 0
KFR1 191449Z 20003KT 08/01 A2992 RMK A01 T00800012  RH  062%=      5-min Rain = 0
KFR1 191450Z 20004KT 08/01 A2992 RMK A01 T00840014  RH  061%=      5-min Rain = 0
KFR1 191451Z 20003KT 09/02 A2992 RMK A01 T00870015  RH  061%=      5-min Rain = 0
KFR1 191452Z 20003KT 09/01 A2992 RMK A01 T00900014  RH  059%=      5-min Rain = 0
KFR1 191453Z 19002KT 09/02 A2992 RMK A01 T00920015  RH  058%=      5-min Rain = 0
KFR1 191454Z 20002KT 09/02 A2992 RMK A01 T00930015  RH  058%=      5-min Rain = 0
KFR1 191455Z 23002KT 09/02 A2992 RMK A01 T00940015  RH  058%=      5-min Rain = 0
KFR1 191456Z 22003KT 09/01 A2992 RMK A01 T00940014  RH  057%=      5-min Rain = 0
KFR1 191457Z 21002KT 09/02 A2992 RMK A01 T00930016  RH  059%=      5-min Rain = 0
KFR1 191458Z 20002KT 09/02 A2992 RMK A01 T00930017  RH  059%=      5-min Rain = 0
KFR1 191459Z 21002KT 09/02 A2992 RMK A01 T00930015  RH  058%=      5-min Rain = 0
KFR1 191500Z 25001KT 09/02 A2992 RMK A01 T00930017  RH  059%=      5-min Rain = 0
KFR1 191501Z 25001KT 09/02 A2992 RMK A01 T00930016  RH  059%=      5-min Rain = 0
KFR1 191502Z 23002KT 09/01 A2992 RMK A01 T00890011  RH  058%=      5-min Rain = 0
KFR1 191503Z 22001KT 09/01 A2992 RMK A01 T00870012  RH  060%=      5-min Rain = 0
KFR1 191504Z 01000KT 09/01 A2992 RMK A01 T00850014  RH  061%=      5-min Rain = 0
KFR1 191505Z 35001KT 08/02 A2992 RMK A01 T00810015  RH  063%=      5-min Rain = 0
KFR1 191506Z 33001KT 08/01 A2992 RMK A01 T00760014  RH  065%=      5-min Rain = 0
KFR1 191507Z 31001KT 07/02 A2992 RMK A01 T00740015  RH  066%=      5-min Rain = 0
KFR1 191508Z 32001KT 07/02 A2992 RMK A01 T00740019  RH  068%=      5-min Rain = 0
KFR1 191509Z 00000KT 07/02 A2992 RMK A01 T00740017  RH  067%=      5-min Rain = 0
KFR1 191510Z 03000KT 07/02 A2992 RMK A01 T00740016  RH  067%=      5-min Rain = 0
KFR1 191511Z 01000KT 07/02 A2992 RMK A01 T00730015  RH  067%=      5-min Rain = 0
KFR1 191512Z 00001KT 07/01 A2992 RMK A01 T00710014  RH  067%=      5-min Rain = 0
KFR1 191513Z 36001KT 07/01 A2992 RMK A01 T00710013  RH  067%=      5-min Rain = 0
KFR1 191514Z 34001KT 07/01 A2992 RMK A01 T00700012  RH  067%=      5-min Rain = 0
KFR1 191515Z 34001KT 07/01 A2992 RMK A01 T00700013  RH  067%=      5-min Rain = 0
KFR1 191516Z 33001KT 07/01 A2992 RMK A01 T00700013  RH  067%=      5-min Rain = 0
KFR1 191517Z 32001KT 07/01 A2992 RMK A01 T00700014  RH  067%=      5-min Rain = 0
KFR1 191518Z 29001KT 07/02 A2992 RMK A01 T00710015  RH  067%=      5-min Rain = 0
KFR1 191519Z 31001KT 07/02 A2992 RMK A01 T00730016  RH  067%=      5-min Rain = 0
KFR1 191520Z 32000KT 08/02 A2992 RMK A01 T00760020  RH  067%=      5-min Rain = 0
KFR1 191521Z 00000KT 08/02 A2992 RMK A01 T00800023  RH  067%=      5-min Rain = 0
KFR1 191522Z 00000KT 08/02 A2992 RMK A01 T00840024  RH  066%=      5-min Rain = 0
KFR1 191523Z 00000KT 09/03 A2992 RMK A01 T00880025  RH  065%=      5-min Rain = 0
KFR1 191524Z 29001KT 09/02 A2992 RMK A01 T00910024  RH  063%=      5-min Rain = 0
KFR1 191525Z 30002KT 09/02 A2992 RMK A01 T00930020  RH  061%=      5-min Rain = 0
KFR1 191526Z 30002KT 09/02 A2992 RMK A01 T00930021  RH  061%=      5-min Rain = 0
KFR1 191527Z 29002KT 09/02 A2992 RMK A01 T00940022  RH  061%=      5-min Rain = 0
KFR1 191528Z 29002KT 10/02 A2992 RMK A01 T00950018  RH  059%=      5-min Rain = 0
KFR1 191529Z 28002KT 09/01 A2992 RMK A01 T00940013  RH  057%=      5-min Rain = 0
KFR1 191530Z 28002KT 09/01 A2992 RMK A01 T00920012  RH  057%=      5-min Rain = 0
KFR1 191531Z 28002KT 09/01 A2992 RMK A01 T00910011  RH  057%=      5-min Rain = 0
KFR1 191532Z 30002KT 09/01 A2992 RMK A01 T00910013  RH  058%=      5-min Rain = 0
KFR1 191533Z 29002KT 09/01 A2992 RMK A01 T00930013  RH  058%=      5-min Rain = 0
KFR1 191534Z 28003KT 09/01 A2992 RMK A01 T00940009  RH  055%=      5-min Rain = 0
KFR1 191535Z 28004KT 09/01 A2992 RMK A01 T00920006  RH  055%=      5-min Rain = 0
KFR1 191536Z 27003KT 09/00 A2993 RMK A01 T00900003  RH  055%=      5-min Rain = 0
KFR1 191537Z 26003KT 09/01 A2993 RMK A01 T00900005  RH  055%=      5-min Rain = 0
KFR1 191538Z 27004KT 09/01 A2992 RMK A01 T00910005  RH  055%=      5-min Rain = 0
KFR1 191539Z 27003KT 09/00 A2992 RMK A01 T00900003  RH  054%=      5-min Rain = 0
KFR1 191540Z 27003KT 09/00 A2992 RMK A01 T00880004  RH  056%=      5-min Rain = 0
KFR1 191541Z 25003KT 09/01 A2992 RMK A01 T00850007  RH  058%=      5-min Rain = 0
KFR1 191542Z 26003KT 09/01 A2992 RMK A01 T00850010  RH  059%=      5-min Rain = 0
KFR1 191543Z 25004KT 08/01 A2992 RMK A01 T00840007  RH  058%=      5-min Rain = 0
KFR1 191544Z 25004KT 08/01 A2992 RMK A01 T00830009  RH  060%=      5-min Rain = 0
KFR1 191545Z 24005KT 08/01 A2992 RMK A01 T00840010  RH  060%=      5-min Rain = 0
KFR1 191546Z 24005KT 09/01 A2992 RMK A01 T00860010  RH  059%=      5-min Rain = 0
KFR1 191547Z 24005KT 09/01 A2992 RMK A01 T00880010  RH  058%=      5-min Rain = 0
KFR1 191548Z 24004KT 09/01 A2992 RMK A01 T00920012  RH  057%=      5-min Rain = 0
KFR1 191549Z 23005KT 10/01 A2992 RMK A01 T00960013  RH  056%=      5-min Rain = 0
KFR1 191550Z 23006KT 10/01 A2992 RMK A01 T00990012  RH  055%=      5-min Rain = 0
KFR1 191551Z 24007KT 10/01 A2992 RMK A01 T01030011  RH  053%=      5-min Rain = 0
KFR1 191552Z 24006KT 11/01 A2992 RMK A01 T01050008  RH  051%=      5-min Rain = 0
KFR1 191553Z 24006KT 11/01 A2992 RMK A01 T01080009  RH  050%=      5-min Rain = 0
KFR1 191554Z 24004KT 11/01 A2992 RMK A01 T01090008  RH  050%=      5-min Rain = 0
KFR1 191555Z 24005KT 11/01 A2992 RMK A01 T01110010  RH  050%=      5-min Rain = 0
KFR1 191556Z 25005KT 11/01 A2992 RMK A01 T01120009  RH  049%=      5-min Rain = 0
KFR1 191557Z 25005KT 11/01 A2992 RMK A01 T01140011  RH  049%=      5-min Rain = 0
KFR1 191558Z 25004KT 12/01 A2992 RMK A01 T01150011  RH  049%=      5-min Rain = 0
KFR1 191559Z 25005KT 12/01 A2992 RMK A01 T01160011  RH  048%=      5-min Rain = 0
KFR1 191600Z 25005KT 12/01 A2992 RMK A01 T01170010  RH  048%=      5-min Rain = 0
KFR1 191601Z 25005KT 12/01 A2992 RMK A01 T01170010  RH  048%=      5-min Rain = 0
KFR1 191602Z 26005KT 12/01 A2992 RMK A01 T01170010  RH  048%=      5-min Rain = 0
KFR1 191603Z 24005KT 12/01 A2992 RMK A01 T01170010  RH  048%=      5-min Rain = 0
KFR1 191604Z 24005KT 12/01 A2992 RMK A01 T01190012  RH  048%=      5-min Rain = 0
KFR1 191605Z 25005KT 12/01 A2992 RMK A01 T01200011  RH  047%=      5-min Rain = 0
KFR1 191606Z 25004KT 12/01 A2992 RMK A01 T01200011  RH  047%=      5-min Rain = 0
KFR1 191607Z 25004KT 12/01 A2992 RMK A01 T01200011  RH  047%=      5-min Rain = 0
KFR1 191608Z 25004KT 12/01 A2992 RMK A01 T01220013  RH  047%=      5-min Rain = 0
KFR1 191609Z 24004KT 12/01 A2992 RMK A01 T01240013  RH  046%=      5-min Rain = 0
KFR1 191610Z 25004KT 13/01 A2992 RMK A01 T01260013  RH  046%=      5-min Rain = 0
KFR1 191611Z 24004KT 13/01 A2992 RMK A01 T01270011  RH  045%=      5-min Rain = 0
KFR1 191612Z 25004KT 13/01 A2992 RMK A01 T01270012  RH  045%=      5-min Rain = 0
KFR1 191613Z 25004KT 13/01 A2992 RMK A01 T01270014  RH  046%=      5-min Rain = 0
KFR1 191614Z 22005KT 13/02 A2992 RMK A01 T01280015  RH  046%=      5-min Rain = 0
KFR1 191615Z 24004KT 13/02 A2992 RMK A01 T01300015  RH  046%=      5-min Rain = 0
KFR1 191616Z 22005KT 13/02 A2992 RMK A01 T01310016  RH  045%=      5-min Rain = 0
KFR1 191617Z 21006KT 13/02 A2991 RMK A01 T01340017  RH  045%=      5-min Rain = 0
KFR1 191618Z 21009KT 14/02 A2991 RMK A01 T01410019  RH  043%=      5-min Rain = 0
KFR1 191619Z 20010KT 15/02 A2991 RMK A01 T01530018  RH  040%=      5-min Rain = 0
KFR1 191620Z 20012KT 17/02 A2991 RMK A01 T01660018  RH  037%=      5-min Rain = 0
KFR1 191621Z 20016G26KT 18/02 A2991 RMK A01 T01750017  RH  035%=      5-min Rain = 0
KFR1 191622Z 19017KT 18/01 A299 RMK A01 T01790011  RH  032%=      5-min Rain = 0
KFR1 191623Z 19017G22KT 18/01 A299 RMK A01 T01830011  RH  031%=      5-min Rain = 0
KFR1 191624Z 20017KT 19/01 A299 RMK A01 T01850012  RH  031%=      5-min Rain = 0
KFR1 191625Z 20020KT 19/01 A299 RMK A01 T01870010  RH  031%=      5-min Rain = 0
KFR1 191626Z 20021KT 19/01 A299 RMK A01 T01870009  RH  030%=      5-min Rain = 0
KFR1 191627Z 20019KT 19/01 A299 RMK A01 T01870008  RH  030%=      5-min Rain = 0
KFR1 191628Z 20021KT 19/01 A299 RMK A01 T01870008  RH  030%=      5-min Rain = 0
KFR1 191629Z 20017G23KT 19/01 A299 RMK A01 T01880009  RH  030%=      5-min Rain = 0
KFR1 191630Z 20015G21KT 19/01 A299 RMK A01 T01900011  RH  030%=      5-min Rain = 0
KFR1 191631Z 20020G25KT 19/01 A299 RMK A01 T01900009  RH  030%=      5-min Rain = 0
KFR1 191632Z 21018G24KT 19/01 A299 RMK A01 T01890008  RH  030%=      5-min Rain = 0
KFR1 191633Z 20018G23KT 19/01 A299 RMK A01 T01890009  RH  030%=      5-min Rain = 0
KFR1 191634Z 19016G21KT 19/01 A299 RMK A01 T01900010  RH  030%=      5-min Rain = 0
KFR1 191635Z 20017G22KT 19/01 A299 RMK A01 T01910011  RH  030%=      5-min Rain = 0
KFR1 191636Z 20020KT 19/01 A299 RMK A01 T01920010  RH  029%=      5-min Rain = 0
KFR1 191637Z 20018G25KT 19/01 A299 RMK A01 T01920010  RH  029%=      5-min Rain = 0
KFR1 191638Z 20022KT 19/01 A299 RMK A01 T01920009  RH  029%=      5-min Rain = 0
KFR1 191639Z 20017KT 19/01 A299 RMK A01 T01920010  RH  030%=      5-min Rain = 0
KFR1 191640Z 20017G22KT 19/01 A299 RMK A01 T01920011  RH  030%=      5-min Rain = 0
KFR1 191641Z 21017KT 19/01 A2989 RMK A01 T01920010  RH  030%=      5-min Rain = 0
KFR1 191642Z 20020KT 19/01 A299 RMK A01 T01920012  RH  030%=      5-min Rain = 0
KFR1 191643Z 21018KT 19/01 A2989 RMK A01 T01930012  RH  030%=      5-min Rain = 0
KFR1 191644Z 20013G19KT 19/01 A299 RMK A01 T01920013  RH  030%=      5-min Rain = 0
KFR1 191645Z 21013KT 19/01 A299 RMK A01 T01940014  RH  030%=      5-min Rain = 0
KFR1 191646Z 20011G19KT 20/02 A299 RMK A01 T01960016  RH  030%=      5-min Rain = 0
KFR1 191647Z 20016G21KT 20/02 A2989 RMK A01 T01970015  RH  030%=      5-min Rain = 0
KFR1 191648Z 20015G20KT 20/02 A2989 RMK A01 T01970015  RH  030%=      5-min Rain = 0
KFR1 191649Z 20017KT 20/01 A2989 RMK A01 T01980014  RH  029%=      5-min Rain = 0
KFR1 191650Z 20017KT 20/01 A2989 RMK A01 T01980014  RH  029%=      5-min Rain = 0
KFR1 191651Z 20015KT 20/01 A2989 RMK A01 T01980013  RH  029%=      5-min Rain = 0
KFR1 191652Z 19015G21KT 20/02 A2989 RMK A01 T01980015  RH  029%=      5-min Rain = 0
KFR1 191653Z 19017KT 20/01 A2989 RMK A01 T01990014  RH  029%=      5-min Rain = 0
KFR1 191654Z 20019G24KT 20/01 A2989 RMK A01 T01990013  RH  029%=      5-min Rain = 0
KFR1 191655Z 19021KT 20/01 A2989 RMK A01 T01980013  RH  029%=      5-min Rain = 0
KFR1 191656Z 19018KT 20/01 A2989 RMK A01 T01980014  RH  029%=      5-min Rain = 0
KFR1 191657Z 18018G24KT 20/01 A2988 RMK A01 T01990014  RH  029%=      5-min Rain = 0
KFR1 191658Z 18020KT 20/01 A2989 RMK A01 T02000012  RH  029%=      5-min Rain = 0
KFR1 191659Z 18019KT 20/01 A2988 RMK A01 T02000013  RH  029%=      5-min Rain = 0
KFR1 191700Z 19017G22KT 20/01 A2988 RMK A01 T02000014  RH  029%=      5-min Rain = 0
KFR1 191701Z 19020KT 20/01 A2988 RMK A01 T02010013  RH  029%=      5-min Rain = 0
KFR1 191702Z 19019KT 20/01 A2988 RMK A01 T02010012  RH  028%=      5-min Rain = 0
KFR1 191703Z 19015G20KT 20/01 A2988 RMK A01 T02020014  RH  029%=      5-min Rain = 0
KFR1 191704Z 19014KT 20/02 A2988 RMK A01 T02030016  RH  029%=      5-min Rain = 0
KFR1 191705Z 18017G25KT 21/02 A2988 RMK A01 T02060015  RH  028%=      5-min Rain = 0
KFR1 191706Z 20021G29KT 21/01 A2988 RMK A01 T02070013  RH  027%=      5-min Rain = 0
KFR1 191707Z 20023G28KT 21/01 A2987 RMK A01 T02070009  RH  027%=      5-min Rain = 0
KFR1 191708Z 20017KT 21/01 A2988 RMK A01 T02050009  RH  027%=      5-min Rain = 0
KFR1 191709Z 20019KT 21/01 A2987 RMK A01 T02060010  RH  027%=      5-min Rain = 0
KFR1 191710Z 20024G29KT 21/01 A2987 RMK A01 T02070008  RH  027%=      5-min Rain = 0
KFR1 191711Z 20021G27KT 21/01 A2987 RMK A01 T02050007  RH  027%=      5-min Rain = 0
KFR1 191712Z 19021G28KT 21/01 A2987 RMK A01 T02050006  RH  027%=      5-min Rain = 0
KFR1 191713Z 20020G26KT 21/01 A2987 RMK A01 T02060008  RH  027%=      5-min Rain = 0
KFR1 191714Z 19024KT 21/01 A2987 RMK A01 T02060008  RH  027%=      5-min Rain = 0
KFR1 191715Z 19023G28KT 21/01 A2987 RMK A01 T02060008  RH  027%=      5-min Rain = 0
KFR1 191716Z 19024KT 21/01 A2987 RMK A01 T02060008  RH  027%=      5-min Rain = 0
KFR1 191717Z 19022G27KT 21/01 A2987 RMK A01 T02070008  RH  026%=      5-min Rain = 0
KFR1 191718Z 19021G26KT 21/01 A2987 RMK A01 T02070007  RH  026%=      5-min Rain = 0
KFR1 191719Z 20022G27KT 21/01 A2987 RMK A01 T02090009  RH  026%=      5-min Rain = 0
KFR1 191720Z 19024KT 21/01 A2986 RMK A01 T02100005  RH  026%=      5-min Rain = 0
KFR1 191721Z 20023G29KT 21/01 A2986 RMK A01 T02100005  RH  026%=      5-min Rain = 0
KFR1 191722Z 20022KT 21/01 A2986 RMK A01 T02090005  RH  026%=      5-min Rain = 0
KFR1 191723Z 20019G25KT 21/01 A2986 RMK A01 T02090007  RH  026%=      5-min Rain = 0
KFR1 191724Z 20022G28KT 21/01 A2986 RMK A01 T02090007  RH  026%=      5-min Rain = 0
KFR1 191725Z 20024KT 21/01 A2986 RMK A01 T02100006  RH  026%=      5-min Rain = 0
KFR1 191726Z 20022KT 21/01 A2986 RMK A01 T02080007  RH  026%=      5-min Rain = 0
KFR1 191727Z 20022KT 21/01 A2986 RMK A01 T02070007  RH  026%=      5-min Rain = 0
KFR1 191728Z 19020KT 21/01 A2986 RMK A01 T02080007  RH  026%=      5-min Rain = 0
KFR1 191729Z 20022G27KT 21/01 A2986 RMK A01 T02100006  RH  026%=      5-min Rain = 0
KFR1 191730Z 21021G26KT 21/01 A2986 RMK A01 T02100006  RH  026%=      5-min Rain = 0
KFR1 191731Z 20018G25KT 21/01 A2986 RMK A01 T02090007  RH  026%=      5-min Rain = 0
KFR1 191732Z 20021G28KT 21/01 A2986 RMK A01 T02100007  RH  026%=      5-min Rain = 0
KFR1 191733Z 20022G28KT 21/01 A2986 RMK A01 T02110005  RH  025%=      5-min Rain = 0
KFR1 191734Z 20022KT 21/01 A2986 RMK A01 T02100005  RH  025%=      5-min Rain = 0
KFR1 191735Z 20022G27KT 21/01 A2986 RMK A01 T02100005  RH  025%=      5-min Rain = 0
KFR1 191736Z 20023KT 21/00 A2986 RMK A01 T02100004  RH  025%=      5-min Rain = 0
KFR1 191737Z 20021KT 21/00 A2986 RMK A01 T02100004  RH  025%=      5-min Rain = 0
KFR1 191738Z 20021KT 21/00 A2986 RMK A01 T02100004  RH  025%=      5-min Rain = 0
KFR1 191739Z 20019G24KT 21/01 A2986 RMK A01 T02100005  RH  025%=      5-min Rain = 0
KFR1 191740Z 20018KT 21/01 A2986 RMK A01 T02110007  RH  026%=      5-min Rain = 0
KFR1 191741Z 20017G22KT 21/01 A2986 RMK A01 T02120007  RH  025%=      5-min Rain = 0
KFR1 191742Z 19018KT 21/01 A2986 RMK A01 T02130007  RH  025%=      5-min Rain = 0
KFR1 191743Z 19020KT 21/01 A2986 RMK A01 T02130007  RH  025%=      5-min Rain = 0
KFR1 191744Z 21018G24KT 21/01 A2986 RMK A01 T02120006  RH  025%=      5-min Rain = 0
KFR1 191745Z 21020G25KT 21/01 A2986 RMK A01 T02120005  RH  025%=      5-min Rain = 0
KFR1 191746Z 21021KT 21/00 A2986 RMK A01 T02110003  RH  025%=      5-min Rain = 0
KFR1 191747Z 20020KT 21/00 A2986 RMK A01 T02100004  RH  025%=      5-min Rain = 0
KFR1 191748Z 21019G24KT 21/01 A2986 RMK A01 T02100006  RH  026%=      5-min Rain = 0
KFR1 191749Z 20019KT 21/01 A2986 RMK A01 T02100005  RH  026%=      5-min Rain = 0
KFR1 191750Z 20013G18KT 21/01 A2986 RMK A01 T02100007  RH  026%=      5-min Rain = 0
KFR1 191751Z 20017G23KT 21/01 A2986 RMK A01 T02120008  RH  026%=      5-min Rain = 0
KFR1 191752Z 21019KT 21/01 A2986 RMK A01 T02140006  RH  025%=      5-min Rain = 0
KFR1 191753Z 21016KT 21/01 A2986 RMK A01 T02140007  RH  025%=      5-min Rain = 0
KFR1 191754Z 21017KT 21/01 A2986 RMK A01 T02140008  RH  025%=      5-min Rain = 0
KFR1 191755Z 20017KT 21/01 A2986 RMK A01 T02140007  RH  025%=      5-min Rain = 0
KFR1 191756Z 21019G26KT 21/01 A2985 RMK A01 T02140007  RH  025%=      5-min Rain = 0
KFR1 191757Z 20020KT 21/01 A2985 RMK A01 T02140008  RH  025%=      5-min Rain = 0
KFR1 191758Z 20018KT 21/01 A2985 RMK A01 T02140006  RH  025%=      5-min Rain = 0
KFR1 191759Z 21019KT 22/01 A2985 RMK A01 T02150007  RH  025%=      5-min Rain = 0
KFR1 191800Z 22016G21KT 21/01 A2985 RMK A01 T02140008  RH  025%=      5-min Rain = 0
KFR1 191801Z 21018G25KT 22/01 A2985 RMK A01 T02150009  RH  025%=      5-min Rain = 0
KFR1 191802Z 21019G25KT 21/01 A2985 RMK A01 T02140008  RH  025%=      5-min Rain = 0
KFR1 191803Z 20020KT 21/01 A2985 RMK A01 T02140008  RH  025%=      5-min Rain = 0
KFR1 191804Z 22021KT 21/01 A2985 RMK A01 T02140009  RH  026%=      5-min Rain = 0
KFR1 191805Z 21019G24KT 21/01 A2985 RMK A01 T02140010  RH  026%=      5-min Rain = 0
KFR1 191806Z 21021G27KT 22/01 A2985 RMK A01 T02150010  RH  026%=      5-min Rain = 0
KFR1 191807Z 21021KT 22/01 A2985 RMK A01 T02150009  RH  025%=      5-min Rain = 0
KFR1 191808Z 22019G25KT 22/01 A2985 RMK A01 T02150009  RH  026%=      5-min Rain = 0
KFR1 191809Z 21020G25KT 22/01 A2985 RMK A01 T02150010  RH  026%=      5-min Rain = 0
KFR1 191810Z 22020KT 22/01 A2984 RMK A01 T02150010  RH  026%=      5-min Rain = 0
KFR1 191811Z 21017G22KT 21/01 A2985 RMK A01 T02140011  RH  026%=      5-min Rain = 0
KFR1 191812Z 19018KT 21/01 A2984 RMK A01 T02140011  RH  026%=      5-min Rain = 0
KFR1 191813Z 19020KT 22/01 A2984 RMK A01 T02150011  RH  026%=      5-min Rain = 0
KFR1 191814Z 20022KT 22/01 A2984 RMK A01 T02160012  RH  026%=      5-min Rain = 0
KFR1 191815Z 20021G26KT 21/01 A2984 RMK A01 T02140011  RH  026%=      5-min Rain = 0
KFR1 191816Z 20019KT 21/01 A2984 RMK A01 T02140012  RH  026%=      5-min Rain = 0
KFR1 191817Z 19019KT 21/01 A2984 RMK A01 T02140012  RH  026%=      5-min Rain = 0
KFR1 191818Z 19020KT 22/01 A2984 RMK A01 T02150012  RH  026%=      5-min Rain = 0
KFR1 191819Z 19020KT 22/01 A2984 RMK A01 T02150011  RH  026%=      5-min Rain = 0
KFR1 191820Z 19020G25KT 22/01 A2984 RMK A01 T02160011  RH  026%=      5-min Rain = 0
KFR1 191821Z 19017G24KT 22/01 A2984 RMK A01 T02160011  RH  026%=      5-min Rain = 0
KFR1 191822Z 19021KT 22/01 A2984 RMK A01 T02170012  RH  026%=      5-min Rain = 0
KFR1 191823Z 20017G23KT 22/01 A2984 RMK A01 T02180012  RH  026%=      5-min Rain = 0
KFR1 191824Z 20019G24KT 22/01 A2984 RMK A01 T02200014  RH  025%=      5-min Rain = 0
KFR1 191825Z 19019KT 22/01 A2984 RMK A01 T02210012  RH  025%=      5-min Rain = 0
KFR1 191826Z 19020KT 22/01 A2984 RMK A01 T02210012  RH  025%=      5-min Rain = 0
KFR1 191827Z 20014G19KT 22/01 A2984 RMK A01 T02210013  RH  025%=      5-min Rain = 0
KFR1 191828Z 21019KT 22/01 A2984 RMK A01 T02220013  RH  025%=      5-min Rain = 0
KFR1 191829Z 20015KT 22/01 A2984 RMK A01 T02220013  RH  025%=      5-min Rain = 0
KFR1 191830Z 21019KT 22/01 A2984 RMK A01 T02220014  RH  025%=      5-min Rain = 0
KFR1 191831Z 21021KT 22/01 A2983 RMK A01 T02230013  RH  025%=      5-min Rain = 0
KFR1 191832Z 21017G22KT 22/01 A2983 RMK A01 T02220012  RH  025%=      5-min Rain = 0
KFR1 191833Z 21020KT 22/01 A2983 RMK A01 T02210013  RH  025%=      5-min Rain = 0
KFR1 191834Z 20017KT 22/01 A2983 RMK A01 T02220013  RH  025%=      5-min Rain = 0
KFR1 191835Z 20017KT 22/01 A2983 RMK A01 T02230014  RH  025%=      5-min Rain = 0
KFR1 191836Z 21016KT 22/01 A2983 RMK A01 T02230013  RH  025%=      5-min Rain = 0
KFR1 191837Z 20014KT 22/02 A2983 RMK A01 T02240015  RH  025%=      5-min Rain = 0
KFR1 191838Z 19017G23KT 23/02 A2983 RMK A01 T02270017  RH  025%=      5-min Rain = 0
KFR1 191839Z 19021KT 23/01 A2983 RMK A01 T02270014  RH  025%=      5-min Rain = 0
KFR1 191840Z 20018G23KT 22/01 A2983 RMK A01 T02240013  RH  025%=      5-min Rain = 0
KFR1 191841Z 19017G23KT 22/02 A2983 RMK A01 T02230015  RH  025%=      5-min Rain = 0
KFR1 191842Z 19018KT 22/01 A2982 RMK A01 T02230014  RH  025%=      5-min Rain = 0
KFR1 191843Z 19017KT 22/01 A2982 RMK A01 T02230014  RH  025%=      5-min Rain = 0
KFR1 191844Z 19019KT 23/02 A2982 RMK A01 T02250015  RH  025%=      5-min Rain = 0
KFR1 191845Z 19020KT 23/02 A2982 RMK A01 T02250015  RH  025%=      5-min Rain = 0
KFR1 191846Z 19017G22KT 23/02 A2982 RMK A01 T02260015  RH  025%=      5-min Rain = 0
KFR1 191847Z 20013KT 23/02 A2982 RMK A01 T02270015  RH  025%=      5-min Rain = 0
KFR1 191848Z 20014G20KT 23/02 A2982 RMK A01 T02290016  RH  025%=      5-min Rain = 0
KFR1 191849Z 21015KT 23/02 A2982 RMK A01 T02320017  RH  024%=      5-min Rain = 0
KFR1 191850Z 21017KT 23/01 A2982 RMK A01 T02320014  RH  024%=      5-min Rain = 0
KFR1 191851Z 19020KT 23/02 A2982 RMK A01 T02300015  RH  024%=      5-min Rain = 0
KFR1 191852Z 20016KT 23/02 A2982 RMK A01 T02300015  RH  024%=      5-min Rain = 0
KFR1 191853Z 20016G21KT 23/01 A2981 RMK A01 T02310014  RH  024%=      5-min Rain = 0
KFR1 191854Z 18017KT 23/01 A2981 RMK A01 T02320014  RH  024%=      5-min Rain = 0
KFR1 191855Z 20016G22KT 23/02 A2981 RMK A01 T02330017  RH  024%=      5-min Rain = 0
KFR1 191856Z 19020KT 23/02 A2981 RMK A01 T02340015  RH  024%=      5-min Rain = 0
KFR1 191857Z 20016G22KT 23/01 A2981 RMK A01 T02320013  RH  024%=      5-min Rain = 0
KFR1 191858Z 19021KT 23/01 A2981 RMK A01 T02320013  RH  024%=      5-min Rain = 0
KFR1 191859Z 19020KT 23/01 A2981 RMK A01 T02310013  RH  024%=      5-min Rain = 0
KFR1 191900Z 19018G24KT 23/01 A2981 RMK A01 T02310013  RH  024%=      5-min Rain = 0
KFR1 191901Z 20018G24KT 23/01 A2981 RMK A01 T02310013  RH  024%=      5-min Rain = 0
KFR1 191902Z 19019KT 23/01 A2981 RMK A01 T02330011  RH  023%=      5-min Rain = 0
KFR1 191903Z 20017G22KT 23/01 A2981 RMK A01 T02340009  RH  023%=      5-min Rain = 0
KFR1 191904Z 20021G27KT 24/01 A298 RMK A01 T02350009  RH  023%=      5-min Rain = 0
KFR1 191905Z 20018G23KT 24/01 A298 RMK A01 T02350010  RH  023%=      5-min Rain = 0
KFR1 191906Z 20016G21KT 23/01 A298 RMK A01 T02340011  RH  023%=      5-min Rain = 0
KFR1 191907Z 19019G24KT 24/01 A298 RMK A01 T02350012  RH  023%=      5-min Rain = 0
KFR1 191908Z 20018KT 24/01 A298 RMK A01 T02350010  RH  023%=      5-min Rain = 0
KFR1 191909Z 20016G22KT 24/01 A298 RMK A01 T02360009  RH  022%=      5-min Rain = 0
KFR1 191910Z 19016KT 24/01 A298 RMK A01 T02370013  RH  023%=      5-min Rain = 0
KFR1 191911Z 19017G22KT 24/01 A298 RMK A01 T02390011  RH  022%=      5-min Rain = 0
KFR1 191912Z 20018G23KT 24/01 A298 RMK A01 T02410012  RH  022%=      5-min Rain = 0
KFR1 191913Z 21022G29KT 24/01 A298 RMK A01 T02410007  RH  021%=      5-min Rain = 0
KFR1 191914Z 21017KT 24/00 A298 RMK A01 T02400004  RH  021%=      5-min Rain = 0
KFR1 191915Z 21017KT 24/00 A298 RMK A01 T02390004  RH  021%=      5-min Rain = 0
KFR1 191916Z 21021G26KT 24/00 A2979 RMK A01 T02400004  RH  021%=      5-min Rain = 0
KFR1 191917Z 20021KT 24/00 A2979 RMK A01 T02400001  RH  021%=      5-min Rain = 0
KFR1 191918Z 20023KT 24/M00 A2979 RMK A01 T02381001  RH  021%=      5-min Rain = 0
KFR1 191919Z 20020KT 24/M00 A298 RMK A01 T02371001  RH  021%=      5-min Rain = 0
KFR1 191920Z 20019KT 24/00 A2979 RMK A01 T02380000  RH  021%=      5-min Rain = 0
KFR1 191921Z 21019G29KT 24/00 A2979 RMK A01 T02380001  RH  021%=      5-min Rain = 0
KFR1 191922Z 21022KT 24/00 A2979 RMK A01 T02400001  RH  021%=      5-min Rain = 0
KFR1 191923Z 21023KT 24/00 A2979 RMK A01 T02380001  RH  021%=      5-min Rain = 0
KFR1 191924Z 21021KT 24/00 A2979 RMK A01 T02370000  RH  021%=      5-min Rain = 0
KFR1 191925Z 21020KT 24/00 A2979 RMK A01 T02370001  RH  021%=      5-min Rain = 0
KFR1 191926Z 21021KT 24/00 A2979 RMK A01 T02380001  RH  021%=      5-min Rain = 0
KFR1 191927Z 21019KT 24/00 A2979 RMK A01 T023700-0  RH  021%=      5-min Rain = 0
KFR1 191928Z 20016KT 24/00 A2979 RMK A01 T02370002  RH  021%=      5-min Rain = 0
KFR1 191929Z 21018KT 24/00 A2979 RMK A01 T02380003  RH  021%=      5-min Rain = 0
KFR1 191930Z 21022KT 24/00 A2979 RMK A01 T02380001  RH  021%=      5-min Rain = 0
KFR1 191931Z 21020G26KT 24/00 A2979 RMK A01 T02380000  RH  021%=      5-min Rain = 0
KFR1 191932Z 21023KT 24/M00 A2979 RMK A01 T02371001  RH  021%=      5-min Rain = 0
KFR1 191933Z 20018G24KT 24/M00 A2979 RMK A01 T02361001  RH  021%=      5-min Rain = 0
KFR1 191934Z 19019KT 24/00 A2979 RMK A01 T02370001  RH  021%=      5-min Rain = 0
KFR1 191935Z 20020KT 24/00 A2979 RMK A01 T02390000  RH  021%=      5-min Rain = 0
KFR1 191936Z 20019G24KT 24/00 A2979 RMK A01 T023900-0  RH  021%=      5-min Rain = 0
KFR1 191937Z 20015G21KT 24/00 A2979 RMK A01 T02380000  RH  021%=      5-min Rain = 0
KFR1 191938Z 20018G24KT 24/00 A2979 RMK A01 T02360001  RH  021%=      5-min Rain = 0
KFR1 191939Z 19018KT 24/00 A2979 RMK A01 T023500-0  RH  021%=      5-min Rain = 0
KFR1 191940Z 20019KT 23/00 A2979 RMK A01 T02340000  RH  021%=      5-min Rain = 0
KFR1 191941Z 20016G21KT 23/00 A2979 RMK A01 T023300-0  RH  021%=      5-min Rain = 0
KFR1 191942Z 20018G23KT 23/00 A2979 RMK A01 T02330001  RH  021%=      5-min Rain = 0
KFR1 191943Z 20016KT 23/00 A2979 RMK A01 T02340001  RH  021%=      5-min Rain = 0
KFR1 191944Z 20016G23KT 24/00 A2979 RMK A01 T02350001  RH  021%=      5-min Rain = 0
KFR1 191945Z 20016KT 24/00 A2979 RMK A01 T02360001  RH  021%=      5-min Rain = 0
KFR1 191946Z 20013KT 24/00 A2979 RMK A01 T02370003  RH  021%=      5-min Rain = 0
KFR1 191947Z 20013G18KT 24/00 A2979 RMK A01 T02400004  RH  021%=      5-min Rain = 0
KFR1 191948Z 21012KT 24/00 A2979 RMK A01 T02420004  RH  021%=      5-min Rain = 0
KFR1 191949Z 22015G21KT 24/00 A2978 RMK A01 T02440004  RH  021%=      5-min Rain = 0
KFR1 191950Z 22021G26KT 24/00 A2978 RMK A01 T02440002  RH  020%=      5-min Rain = 0
KFR1 191951Z 22021KT 24/00 A2978 RMK A01 T02440001  RH  020%=      5-min Rain = 0
KFR1 191952Z 21018KT 24/00 A2978 RMK A01 T02440001  RH  020%=      5-min Rain = 0
KFR1 191953Z 20018KT 25/00 A2978 RMK A01 T02450002  RH  020%=      5-min Rain = 0
KFR1 191954Z 21018KT 25/00 A2978 RMK A01 T02460001  RH  020%=      5-min Rain = 0
KFR1 191955Z 20017G22KT 25/00 A2978 RMK A01 T024700-0  RH  020%=      5-min Rain = 0
KFR1 191956Z 20017G22KT 25/00 A2977 RMK A01 T024800-0  RH  020%=      5-min Rain = 0
KFR1 191957Z 21020G27KT 25/00 A2977 RMK A01 T024900-0  RH  019%=      5-min Rain = 0
KFR1 191958Z 21021KT 25/M00 A2977 RMK A01 T02501002  RH  019%=      5-min Rain = 0
KFR1 191959Z 21021KT 25/M00 A2977 RMK A01 T02491002  RH  019%=      5-min Rain = 0
KFR1 192000Z 21017G23KT 25/M00 A2977 RMK A01 T02481002  RH  019%=      5-min Rain = 0
KFR1 192001Z 21015KT 25/00 A2977 RMK A01 T02510001  RH  019%=      5-min Rain = 0
KFR1 192002Z 21018KT 26/00 A2977 RMK A01 T02550001  RH  019%=      5-min Rain = 0
KFR1 192003Z 21021KT 26/M00 A2977 RMK A01 T02571001  RH  018%=      5-min Rain = 0
KFR1 192004Z 20022G28KT 26/M00 A2976 RMK A01 T02571003  RH  018%=      5-min Rain = 0
KFR1 192005Z 21020G25KT 26/M00 A2977 RMK A01 T02561004  RH  018%=      5-min Rain = 0
KFR1 192006Z 21017G22KT 26/M00 A2977 RMK A01 T02561003  RH  018%=      5-min Rain = 0
KFR1 192007Z 22020G27KT 26/M00 A2977 RMK A01 T02581002  RH  018%=      5-min Rain = 0
KFR1 192008Z 21025KT 26/M01 A2976 RMK A01 T02571005  RH  018%=      5-min Rain = 0
KFR1 192009Z 22020G25KT 25/M01 A2976 RMK A01 T02531006  RH  018%=      5-min Rain = 0
KFR1 192010Z 21022G27KT 25/M00 A2976 RMK A01 T02531004  RH  018%=      5-min Rain = 0
KFR1 192011Z 20021KT 25/M01 A2976 RMK A01 T02531005  RH  018%=      5-min Rain = 0
KFR1 192012Z 21021G27KT 25/M00 A2976 RMK A01 T02531004  RH  018%=      5-min Rain = 0
KFR1 192013Z 21024G29KT 25/M00 A2976 RMK A01 T02531003  RH  019%=      5-min Rain = 0
KFR1 192014Z 22022KT 25/M00 A2976 RMK A01 T02531003  RH  018%=      5-min Rain = 0
KFR1 192015Z 21020KT 25/M00 A2976 RMK A01 T02531003  RH  019%=      5-min Rain = 0
KFR1 192016Z 21018G23KT 25/M00 A2976 RMK A01 T02531003  RH  019%=      5-min Rain = 0
KFR1 192017Z 22019G26KT 25/M00 A2976 RMK A01 T02531002  RH  019%=      5-min Rain = 0
KFR1 192018Z 23021G28KT 25/M00 A2977 RMK A01 T02541003  RH  018%=      5-min Rain = 0
KFR1 192019Z 22020G26KT 25/M01 A2976 RMK A01 T02541005  RH  018%=      5-min Rain = 0
KFR1 192020Z 21020G27KT 25/M00 A2976 RMK A01 T02541002  RH  019%=      5-min Rain = 0
KFR1 192021Z 21019G25KT 26/M00 A2976 RMK A01 T02551002  RH  018%=      5-min Rain = 0
KFR1 192022Z 21024G31KT 26/M00 A2976 RMK A01 T02551004  RH  018%=      5-min Rain = 0
KFR1 192023Z 22025G30KT 25/M01 A2976 RMK A01 T02541006  RH  018%=      5-min Rain = 0
KFR1 192024Z 22025KT 25/M01 A2976 RMK A01 T02521005  RH  018%=      5-min Rain = 0
KFR1 192025Z 23018G23KT 25/M00 A2976 RMK A01 T02521004  RH  019%=      5-min Rain = 0
KFR1 192026Z 23016KT 25/M00 A2976 RMK A01 T02541003  RH  019%=      5-min Rain = 0
KFR1 192027Z 23016KT 26/M00 A2976 RMK A01 T02561001  RH  018%=      5-min Rain = 0
KFR1 192028Z 22016G22KT 25/M00 A2976 RMK A01 T02541002  RH  018%=      5-min Rain = 0
KFR1 192029Z 21020G30KT 25/M00 A2976 RMK A01 T02521003  RH  019%=      5-min Rain = 0
KFR1 192030Z 22023KT 25/M00 A2976 RMK A01 T02511004  RH  019%=      5-min Rain = 0
KFR1 192031Z 21021KT 25/M00 A2976 RMK A01 T02501003  RH  019%=      5-min Rain = 0
KFR1 192032Z 21019G25KT 25/M00 A2976 RMK A01 T02501003  RH  019%=      5-min Rain = 0
KFR1 192033Z 21019KT 25/M00 A2976 RMK A01 T02491002  RH  019%=      5-min Rain = 0
KFR1 192034Z 21022G31KT 25/M00 A2976 RMK A01 T02481001  RH  019%=      5-min Rain = 0
KFR1 192035Z 21026KT 25/M00 A2975 RMK A01 T02471002  RH  019%=      5-min Rain = 0
KFR1 192036Z 21023G29KT 25/M00 A2976 RMK A01 T02471002  RH  019%=      5-min Rain = 0
KFR1 192037Z 21019G24KT 25/M00 A2976 RMK A01 T02471002  RH  019%=      5-min Rain = 0
KFR1 192038Z 21019KT 25/M00 A2976 RMK A01 T02471001  RH  019%=      5-min Rain = 0
KFR1 192039Z 21022KT 25/00 A2976 RMK A01 T02500000  RH  019%=      5-min Rain = 0
KFR1 192040Z 21020G25KT 25/M00 A2976 RMK A01 T02511002  RH  019%=      5-min Rain = 0
KFR1 192041Z 21019G24KT 25/M00 A2976 RMK A01 T02521001  RH  019%=      5-min Rain = 0
KFR1 192042Z 21018KT 25/00 A2976 RMK A01 T02540000  RH  019%=      5-min Rain = 0
KFR1 192043Z 21021KT 26/00 A2975 RMK A01 T025500-0  RH  019%=      5-min Rain = 0
KFR1 192044Z 21023KT 26/M00 A2975 RMK A01 T02551002  RH  018%=      5-min Rain = 0
KFR1 192045Z 20022KT 26/M00 A2975 RMK A01 T02551001  RH  019%=      5-min Rain = 0
KFR1 192046Z 21021KT 26/M00 A2975 RMK A01 T02551001  RH  019%=      5-min Rain = 0
KFR1 192047Z 21017G22KT 26/00 A2975 RMK A01 T02550000  RH  019%=      5-min Rain = 0
KFR1 192048Z 20022KT 26/00 A2975 RMK A01 T02550000  RH  019%=      5-min Rain = 0
KFR1 192049Z 20020G25KT 26/M00 A2975 RMK A01 T02551001  RH  019%=      5-min Rain = 0
KFR1 192050Z 21018G24KT 26/M00 A2975 RMK A01 T02551001  RH  019%=      5-min Rain = 0
KFR1 192051Z 22022G27KT 26/M00 A2975 RMK A01 T02551002  RH  018%=      5-min Rain = 0
KFR1 192052Z 22023G28KT 26/M00 A2975 RMK A01 T02551002  RH  018%=      5-min Rain = 0
KFR1 192053Z 21020KT 26/M00 A2975 RMK A01 T02551002  RH  018%=      5-min Rain = 0
KFR1 192054Z 22022G27KT 26/M00 A2975 RMK A01 T02551004  RH  018%=      5-min Rain = 0
KFR1 192055Z 22019KT 26/M01 A2975 RMK A01 T02561005  RH  018%=      5-min Rain = 0
KFR1 192056Z 22018G23KT 26/M00 A2975 RMK A01 T02571003  RH  018%=      5-min Rain = 0
KFR1 192057Z 22018G23KT 26/M01 A2975 RMK A01 T02581005  RH  018%=      5-min Rain = 0
KFR1 192058Z 22019KT 26/M01 A2975 RMK A01 T02581005  RH  018%=      5-min Rain = 0
KFR1 192059Z 21023KT 26/M01 A2975 RMK A01 T02581006  RH  018%=      5-min Rain = 0
KFR1 192100Z 21021G26KT 26/M01 A2975 RMK A01 T02581007  RH  018%=      5-min Rain = 0
KFR1 192101Z 21022G31KT 26/M01 A2975 RMK A01 T02571008  RH  017%=      5-min Rain = 0
KFR1 192102Z 21022G27KT 26/M01 A2975 RMK A01 T02571009  RH  017%=      5-min Rain = 0
KFR1 192103Z 21023G32KT 26/M01 A2975 RMK A01 T02561009  RH  017%=      5-min Rain = 0
KFR1 192104Z 22025G31KT 26/M01 A2974 RMK A01 T02561009  RH  017%=      5-min Rain = 0
KFR1 192105Z 22021G26KT 26/M01 A2975 RMK A01 T02561009  RH  017%=      5-min Rain = 0
KFR1 192106Z 22018KT 26/M01 A2975 RMK A01 T02561008  RH  018%=      5-min Rain = 0
KFR1 192107Z 21016G21KT 26/M01 A2975 RMK A01 T02561007  RH  018%=      5-min Rain = 0
KFR1 192108Z 21019KT 26/M01 A2975 RMK A01 T02581007  RH  017%=      5-min Rain = 0
KFR1 192109Z 22016KT 26/M01 A2975 RMK A01 T02581007  RH  017%=      5-min Rain = 0
KFR1 192110Z 22022G28KT 26/M01 A2975 RMK A01 T02591008  RH  017%=      5-min Rain = 0
KFR1 192111Z 22019KT 26/M01 A2975 RMK A01 T02591008  RH  017%=      5-min Rain = 0
KFR1 192112Z 24017KT 26/M01 A2975 RMK A01 T02581009  RH  017%=      5-min Rain = 0
KFR1 192113Z 22020KT 26/M01 A2975 RMK A01 T02571009  RH  017%=      5-min Rain = 0
KFR1 192114Z 22020G25KT 26/M01 A2975 RMK A01 T02571008  RH  017%=      5-min Rain = 0
KFR1 192115Z 22020KT 26/M01 A2975 RMK A01 T02571009  RH  017%=      5-min Rain = 0
KFR1 192116Z 23017KT 26/M01 A2975 RMK A01 T02561009  RH  017%=      5-min Rain = 0
KFR1 192117Z 23019KT 26/M01 A2975 RMK A01 T02561008  RH  018%=      5-min Rain = 0
KFR1 192118Z 23020KT 26/M01 A2975 RMK A01 T02561008  RH  017%=      5-min Rain = 0
KFR1 192119Z 22018G24KT 26/M01 A2975 RMK A01 T02571008  RH  017%=      5-min Rain = 0
KFR1 192120Z 22015KT 26/M01 A2975 RMK A01 T02571006  RH  018%=      5-min Rain = 0
KFR1 192121Z 21017G25KT 26/M01 A2975 RMK A01 T02571006  RH  018%=      5-min Rain = 0
KFR1 192122Z 21021G27KT 26/M01 A2974 RMK A01 T02571008  RH  017%=      5-min Rain = 0
KFR1 192123Z 21020KT 26/M01 A2975 RMK A01 T02561009  RH  017%=      5-min Rain = 0
KFR1 192124Z 21021KT 26/M01 A2974 RMK A01 T02561008  RH  018%=      5-min Rain = 0
KFR1 192125Z 21022G27KT 26/M01 A2974 RMK A01 T02561009  RH  017%=      5-min Rain = 0
KFR1 192126Z 21017KT 26/M01 A2975 RMK A01 T02551009  RH  018%=      5-min Rain = 0
KFR1 192127Z 21020KT 26/M01 A2974 RMK A01 T02551008  RH  018%=      5-min Rain = 0
KFR1 192128Z 22022KT 26/M01 A2974 RMK A01 T02561008  RH  018%=      5-min Rain = 0
KFR1 192129Z 22022KT 26/M01 A2974 RMK A01 T02551007  RH  018%=      5-min Rain = 0
KFR1 192130Z 21022KT 26/M01 A2974 RMK A01 T02551007  RH  018%=      5-min Rain = 0
KFR1 192131Z 22020KT 26/M01 A2974 RMK A01 T02551007  RH  018%=      5-min Rain = 0
KFR1 192132Z 21024KT 26/M01 A2974 RMK A01 T02551008  RH  018%=      5-min Rain = 0
KFR1 192133Z 21021G28KT 26/M01 A2974 RMK A01 T02551008  RH  018%=      5-min Rain = 0
KFR1 192134Z 21020KT 26/M01 A2974 RMK A01 T02551008  RH  018%=      5-min Rain = 0
KFR1 192135Z 21019KT 26/M01 A2974 RMK A01 T02551007  RH  018%=      5-min Rain = 0
KFR1 192136Z 22021G27KT 26/M01 A2974 RMK A01 T02551008  RH  018%=      5-min Rain = 0
KFR1 192137Z 20017KT 26/M01 A2974 RMK A01 T02551007  RH  018%=      5-min Rain = 0
KFR1 192138Z 21018KT 26/M01 A2974 RMK A01 T02561006  RH  018%=      5-min Rain = 0
KFR1 192139Z 21017KT 26/M01 A2974 RMK A01 T02561007  RH  018%=      5-min Rain = 0
KFR1 192140Z 21019KT 26/M01 A2974 RMK A01 T02561007  RH  018%=      5-min Rain = 0
KFR1 192141Z 21020KT 26/M01 A2974 RMK A01 T02561007  RH  018%=      5-min Rain = 0
KFR1 192142Z 20018KT 26/M01 A2974 RMK A01 T02561007  RH  018%=      5-min Rain = 0
KFR1 192143Z 21015KT 26/M01 A2974 RMK A01 T02561007  RH  018%=      5-min Rain = 0
KFR1 192144Z 21013KT 26/M01 A2974 RMK A01 T02561006  RH  018%=      5-min Rain = 0
KFR1 192145Z 21019KT 26/M01 A2974 RMK A01 T02561006  RH  018%=      5-min Rain = 0
KFR1 192146Z 21017KT 26/M01 A2974 RMK A01 T02571006  RH  018%=      5-min Rain = 0
KFR1 192147Z 21018KT 26/M01 A2974 RMK A01 T02571005  RH  018%=      5-min Rain = 0
KFR1 192148Z 21018KT 26/M01 A2974 RMK A01 T02571005  RH  018%=      5-min Rain = 0
KFR1 192149Z 20015KT 26/M01 A2974 RMK A01 T02571005  RH  018%=      5-min Rain = 0
KFR1 192150Z 21016KT 26/M01 A2974 RMK A01 T02571005  RH  018%=      5-min Rain = 0
KFR1 192151Z 21019KT 26/M01 A2974 RMK A01 T02571006  RH  018%=      5-min Rain = 0
KFR1 192152Z 21020G26KT 26/M01 A2974 RMK A01 T02571006  RH  018%=      5-min Rain = 0
KFR1 192153Z 21021KT 26/M01 A2974 RMK A01 T02571006  RH  018%=      5-min Rain = 0
KFR1 192154Z 21018KT 26/M01 A2974 RMK A01 T02561006  RH  018%=      5-min Rain = 0
KFR1 192155Z 21017KT 26/M01 A2974 RMK A01 T02561006  RH  018%=      5-min Rain = 0
KFR1 192156Z 20017G22KT 26/M01 A2974 RMK A01 T02561005  RH  018%=      5-min Rain = 0
KFR1 192157Z 20020G25KT 26/M01 A2974 RMK A01 T02561006  RH  018%=      5-min Rain = 0
KFR1 192158Z 20017KT 26/M01 A2974 RMK A01 T02551006  RH  018%=      5-min Rain = 0
KFR1 192159Z 20017KT 26/M01 A2974 RMK A01 T02551006  RH  018%=      5-min Rain = 0
KFR1 192200Z 20018KT 26/M01 A2974 RMK A01 T02551005  RH  018%=      5-min Rain = 0
KFR1 192201Z 20019G24KT 26/M01 A2974 RMK A01 T02551006  RH  018%=      5-min Rain = 0
KFR1 192202Z 21019KT 26/M01 A2974 RMK A01 T02551006  RH  018%=      5-min Rain = 0
KFR1 192203Z 22021KT 26/M01 A2973 RMK A01 T02551006  RH  018%=      5-min Rain = 0
KFR1 192204Z 21019KT 26/M01 A2974 RMK A01 T02551006  RH  018%=      5-min Rain = 0
KFR1 192205Z 21017KT 25/M01 A2974 RMK A01 T02541006  RH  018%=      5-min Rain = 0
KFR1 192206Z 21017KT 26/M01 A2974 RMK A01 T02551006  RH  018%=      5-min Rain = 0
KFR1 192207Z 21016G21KT 25/M01 A2974 RMK A01 T02541005  RH  018%=      5-min Rain = 0
KFR1 192208Z 21016KT 26/M01 A2974 RMK A01 T02551005  RH  018%=      5-min Rain = 0
KFR1 192209Z 21017G22KT 26/M01 A2974 RMK A01 T02551005  RH  018%=      5-min Rain = 0
KFR1 192210Z 21019KT 26/M01 A2973 RMK A01 T02551005  RH  018%=      5-min Rain = 0
KFR1 192211Z 21019KT 26/M01 A2973 RMK A01 T02551006  RH  018%=      5-min Rain = 0
KFR1 192212Z 22019KT 25/M01 A2973 RMK A01 T02541006  RH  018%=      5-min Rain = 0
KFR1 192213Z 22018KT 25/M01 A2974 RMK A01 T02541007  RH  018%=      5-min Rain = 0
KFR1 192214Z 22019KT 25/M01 A2974 RMK A01 T02541006  RH  018%=      5-min Rain = 0
KFR1 192215Z 21015KT 25/M01 A2974 RMK A01 T02541006  RH  018%=      5-min Rain = 0
KFR1 192216Z 21014KT 25/M01 A2974 RMK A01 T02541005  RH  018%=      5-min Rain = 0
KFR1 192217Z 21015KT 25/M01 A2974 RMK A01 T02541005  RH  018%=      5-min Rain = 0
KFR1 192218Z 21017KT 25/M01 A2974 RMK A01 T02541005  RH  018%=      5-min Rain = 0
KFR1 192219Z 21015G20KT 25/M01 A2974 RMK A01 T02541006  RH  018%=      5-min Rain = 0
KFR1 192220Z 21015KT 25/M01 A2974 RMK A01 T02541005  RH  018%=      5-min Rain = 0
KFR1 192221Z 21016KT 25/M01 A2974 RMK A01 T02541005  RH  018%=      5-min Rain = 0
KFR1 192222Z 20017G22KT 25/M01 A2974 RMK A01 T02541005  RH  018%=      5-min Rain = 0
KFR1 192223Z 20018KT 25/M01 A2973 RMK A01 T02531006  RH  018%=      5-min Rain = 0
KFR1 192224Z 20015KT 25/M01 A2974 RMK A01 T02531007  RH  018%=      5-min Rain = 0
KFR1 192225Z 21015KT 25/M01 A2974 RMK A01 T02531006  RH  018%=      5-min Rain = 0
KFR1 192226Z 21015KT 25/M01 A2974 RMK A01 T02521006  RH  018%=      5-min Rain = 0
KFR1 192227Z 21015KT 25/M01 A2974 RMK A01 T02511006  RH  018%=      5-min Rain = 0
KFR1 192228Z 21015KT 25/M01 A2974 RMK A01 T02511006  RH  018%=      5-min Rain = 0
KFR1 192229Z 20015G20KT 25/M01 A2974 RMK A01 T02511006  RH  018%=      5-min Rain = 0
KFR1 192230Z 20015G20KT 25/M01 A2974 RMK A01 T02501006  RH  018%=      5-min Rain = 0
KFR1 192231Z 20017KT 25/M01 A2974 RMK A01 T02501007  RH  018%=      5-min Rain = 0
KFR1 192232Z 20012KT 25/M01 A2974 RMK A01 T02501007  RH  018%=      5-min Rain = 0
KFR1 192233Z 21015KT 25/M01 A2974 RMK A01 T02501007  RH  018%=      5-min Rain = 0
KFR1 192234Z 20018KT 25/M01 A2974 RMK A01 T02501007  RH  018%=      5-min Rain = 0
KFR1 192235Z 21016KT 25/M01 A2974 RMK A01 T02501007  RH  018%=      5-min Rain = 0
KFR1 192236Z 20014KT 25/M01 A2974 RMK A01 T02501007  RH  018%=      5-min Rain = 0
KFR1 192237Z 20012KT 25/M01 A2974 RMK A01 T02491006  RH  019%=      5-min Rain = 0
KFR1 192238Z 20016KT 25/M01 A2974 RMK A01 T02491006  RH  019%=      5-min Rain = 0
KFR1 192239Z 21014KT 25/M01 A2974 RMK A01 T02491007  RH  018%=      5-min Rain = 0
KFR1 192240Z 21014KT 25/M01 A2974 RMK A01 T02491007  RH  018%=      5-min Rain = 0
KFR1 192241Z 20011KT 25/M01 A2974 RMK A01 T02491006  RH  019%=      5-min Rain = 0
KFR1 192242Z 20016KT 25/M01 A2974 RMK A01 T02481007  RH  019%=      5-min Rain = 0
KFR1 192243Z 20014KT 25/M01 A2974 RMK A01 T02481007  RH  019%=      5-min Rain = 0
KFR1 192244Z 20016KT 25/M01 A2974 RMK A01 T02481007  RH  019%=      5-min Rain = 0
KFR1 192245Z 20017KT 25/M01 A2974 RMK A01 T02471008  RH  019%=      5-min Rain = 0
KFR1 192246Z 21016KT 25/M01 A2974 RMK A01 T02471008  RH  019%=      5-min Rain = 0
KFR1 192247Z 21014KT 25/M01 A2974 RMK A01 T02471008  RH  019%=      5-min Rain = 0
KFR1 192248Z 20014KT 25/M01 A2974 RMK A01 T02471008  RH  019%=      5-min Rain = 0
KFR1 192249Z 20018KT 25/M01 A2974 RMK A01 T02461008  RH  019%=      5-min Rain = 0
KFR1 192250Z 20017KT 25/M01 A2974 RMK A01 T02461009  RH  018%=      5-min Rain = 0
KFR1 192251Z 21016KT 25/M01 A2974 RMK A01 T02461009  RH  018%=      5-min Rain = 0
KFR1 192252Z 20014KT 25/M01 A2974 RMK A01 T02461009  RH  018%=      5-min Rain = 0
KFR1 192253Z 21014KT 25/M01 A2974 RMK A01 T02461008  RH  019%=      5-min Rain = 0
KFR1 192254Z 21014KT 25/M01 A2974 RMK A01 T02451008  RH  019%=      5-min Rain = 0
KFR1 192255Z 21014KT 25/M01 A2974 RMK A01 T02451008  RH  019%=      5-min Rain = 0
KFR1 192256Z 21013G18KT 24/M01 A2974 RMK A01 T02441008  RH  019%=      5-min Rain = 0
KFR1 192257Z 21014G19KT 24/M01 A2973 RMK A01 T02441008  RH  019%=      5-min Rain = 0
KFR1 192258Z 21018KT 24/M01 A2973 RMK A01 T02441009  RH  019%=      5-min Rain = 0
KFR1 192259Z 21017KT 24/M01 A2973 RMK A01 T02441009  RH  019%=      5-min Rain = 0
KFR1 192300Z 20015KT 24/M01 A2973 RMK A01 T02441009  RH  019%=      5-min Rain = 0
KFR1 192301Z 19016KT 24/M01 A2973 RMK A01 T02431008  RH  019%=      5-min Rain = 0
KFR1 192302Z 20016KT 24/M01 A2973 RMK A01 T02421008  RH  019%=      5-min Rain = 0
KFR1 192303Z 20015KT 24/M01 A2974 RMK A01 T02421008  RH  019%=      5-min Rain = 0
KFR1 192304Z 20012KT 24/M01 A2974 RMK A01 T02411007  RH  019%=      5-min Rain = 0
KFR1 192305Z 20014G19KT 24/M01 A2974 RMK A01 T02391007  RH  019%=      5-min Rain = 0
KFR1 192306Z 19014KT 24/M01 A2974 RMK A01 T02391007  RH  020%=      5-min Rain = 0
KFR1 192307Z 19013KT 24/M01 A2974 RMK A01 T02391007  RH  020%=      5-min Rain = 0
KFR1 192308Z 20014G19KT 24/M01 A2974 RMK A01 T02371007  RH  020%=      5-min Rain = 0
KFR1 192309Z 20015KT 24/M01 A2974 RMK A01 T02371006  RH  020%=      5-min Rain = 0
KFR1 192310Z 20013KT 24/M01 A2974 RMK A01 T02361006  RH  020%=      5-min Rain = 0
KFR1 192311Z 20013KT 24/M01 A2974 RMK A01 T02361006  RH  020%=      5-min Rain = 0
KFR1 192312Z 20015KT 23/M01 A2974 RMK A01 T02341006  RH  020%=      5-min Rain = 0
KFR1 192313Z 19014KT 23/M01 A2974 RMK A01 T02341006  RH  020%=      5-min Rain = 0
KFR1 192314Z 19013KT 23/M01 A2974 RMK A01 T02341006  RH  020%=      5-min Rain = 0
KFR1 192315Z 19013KT 23/M01 A2974 RMK A01 T02321006  RH  021%=      5-min Rain = 0
KFR1 192316Z 19014KT 23/M01 A2974 RMK A01 T02311006  RH  021%=      5-min Rain = 0
KFR1 192317Z 20014KT 23/M01 A2974 RMK A01 T02301006  RH  021%=      5-min Rain = 0
KFR1 192318Z 19013KT 23/M01 A2974 RMK A01 T02291006  RH  021%=      5-min Rain = 0
KFR1 192319Z 19013KT 23/M01 A2974 RMK A01 T02281006  RH  021%=      5-min Rain = 0
KFR1 192320Z 19014KT 23/M01 A2974 RMK A01 T02271006  RH  021%=      5-min Rain = 0
KFR1 192321Z 19012KT 23/M01 A2974 RMK A01 T02261006  RH  021%=      5-min Rain = 0
KFR1 192322Z 19013KT 23/M01 A2974 RMK A01 T02251006  RH  021%=      5-min Rain = 0
KFR1 192323Z 19014KT 23/M01 A2974 RMK A01 T02251006  RH  021%=      5-min Rain = 0
KFR1 192324Z 19013KT 22/M01 A2974 RMK A01 T02241007  RH  021%=      5-min Rain = 0
KFR1 192325Z 19011KT 22/M01 A2974 RMK A01 T02231006  RH  022%=      5-min Rain = 0
KFR1 192326Z 19013KT 22/M01 A2974 RMK A01 T02221006  RH  022%=      5-min Rain = 0
KFR1 192327Z 19013KT 22/M01 A2974 RMK A01 T02221007  RH  022%=      5-min Rain = 0
KFR1 192328Z 19013KT 22/M01 A2974 RMK A01 T02221006  RH  022%=      5-min Rain = 0
KFR1 192329Z 19013KT 22/M01 A2974 RMK A01 T02211006  RH  022%=      5-min Rain = 0
KFR1 192330Z 19014KT 22/M01 A2974 RMK A01 T02201006  RH  022%=      5-min Rain = 0
KFR1 192331Z 19013KT 22/M01 A2974 RMK A01 T02201006  RH  022%=      5-min Rain = 0
KFR1 192332Z 19012KT 22/M01 A2974 RMK A01 T02191006  RH  022%=      5-min Rain = 0
KFR1 192333Z 19012KT 22/M01 A2974 RMK A01 T02191006  RH  022%=      5-min Rain = 0
KFR1 192334Z 19012KT 22/M01 A2974 RMK A01 T02171006  RH  023%=      5-min Rain = 0
KFR1 192335Z 19011KT 22/M01 A2974 RMK A01 T02161006  RH  023%=      5-min Rain = 0
KFR1 192336Z 19012KT 22/M01 A2974 RMK A01 T02151006  RH  023%=      5-min Rain = 0
KFR1 192337Z 19012KT 22/M01 A2974 RMK A01 T02151006  RH  023%=      5-min Rain = 0
KFR1 192338Z 19012KT 21/M01 A2974 RMK A01 T02141006  RH  023%=      5-min Rain = 0
KFR1 192339Z 19011KT 21/M01 A2974 RMK A01 T02131005  RH  023%=      5-min Rain = 0
KFR1 192340Z 19011KT 21/M01 A2973 RMK A01 T02121005  RH  023%=      5-min Rain = 0
KFR1 192341Z 19012KT 21/M01 A2973 RMK A01 T02111006  RH  023%=      5-min Rain = 0
KFR1 192342Z 19011KT 21/M01 A2973 RMK A01 T02111005  RH  024%=      5-min Rain = 0
KFR1 192343Z 19014KT 21/M01 A2973 RMK A01 T02111005  RH  024%=      5-min Rain = 0
KFR1 192344Z 19012KT 21/M01 A2973 RMK A01 T02111005  RH  024%=      5-min Rain = 0
KFR1 192345Z 19013KT 21/M01 A2973 RMK A01 T02101005  RH  024%=      5-min Rain = 0
KFR1 192346Z 19012KT 21/M01 A2973 RMK A01 T02091005  RH  024%=      5-min Rain = 0
KFR1 192347Z 19012KT 21/M01 A2973 RMK A01 T02081005  RH  024%=      5-min Rain = 0
KFR1 192348Z 19013KT 21/M01 A2973 RMK A01 T02071005  RH  024%=      5-min Rain = 0
KFR1 192349Z 19013KT 21/M01 A2973 RMK A01 T02071005  RH  024%=      5-min Rain = 0
KFR1 192350Z 19013KT 21/M01 A2973 RMK A01 T02061005  RH  024%=      5-min Rain = 0
KFR1 192351Z 19013KT 21/M01 A2973 RMK A01 T02061005  RH  024%=      5-min Rain = 0
KFR1 192352Z 19013KT 21/M00 A2973 RMK A01 T02051004  RH  024%=      5-min Rain = 0
KFR1 192353Z 19013KT 20/M01 A2973 RMK A01 T02041005  RH  025%=      5-min Rain = 0
KFR1 192354Z 19014KT 20/M01 A2973 RMK A01 T02041005  RH  025%=      5-min Rain = 0
KFR1 192355Z 19015KT 20/M01 A2973 RMK A01 T02031005  RH  025%=      5-min Rain = 0
KFR1 192356Z 19013G19KT 20/M01 A2973 RMK A01 T02041005  RH  025%=      5-min Rain = 0
KFR1 192357Z 19014KT 20/M01 A2974 RMK A01 T02041005  RH  025%=      5-min Rain = 0
KFR1 192358Z 19012G17KT 20/M01 A2974 RMK A01 T02041005  RH  025%=      5-min Rain = 0
KFR1 192359Z 19012KT 20/M00 A2974 RMK A01 T02031004  RH  025%=      5-min Rain = 0
KFR1 200000Z 19013G18KT 20/M01 A2974 RMK A01 T02021005  RH  025%=      5-min Rain = 0
KFR1 200001Z 18015KT 20/M01 A2974 RMK A01 T02021005  RH  025%=      5-min Rain = 0
KFR1 200002Z 18014G19KT 20/M01 A2974 RMK A01 T02031005  RH  025%=      5-min Rain = 0
KFR1 200003Z 18013G18KT 20/M01 A2974 RMK A01 T02031005  RH  025%=      5-min Rain = 0
KFR1 200004Z 18014KT 20/M01 A2974 RMK A01 T02021005  RH  025%=      5-min Rain = 0
KFR1 200005Z 18014KT 20/M01 A2974 RMK A01 T02021005  RH  025%=      5-min Rain = 0
KFR1 200006Z 18011KT 20/M01 A2974 RMK A01 T02021005  RH  025%=      5-min Rain = 0
KFR1 200007Z 18012KT 20/M01 A2974 RMK A01 T02011005  RH  025%=      5-min Rain = 0
KFR1 200008Z 18014KT 20/M01 A2974 RMK A01 T02001005  RH  025%=      5-min Rain = 0
KFR1 200009Z 18014KT 20/M01 A2974 RMK A01 T02011005  RH  025%=      5-min Rain = 0
KFR1 200010Z 19013KT 20/M01 A2974 RMK A01 T02011005  RH  025%=      5-min Rain = 0
KFR1 200011Z 18014KT 20/M01 A2974 RMK A01 T02001005  RH  025%=      5-min Rain = 0
KFR1 200012Z 18015KT 20/M01 A2974 RMK A01 T02001005  RH  025%=      5-min Rain = 0
KFR1 200013Z 18014KT 20/M00 A2974 RMK A01 T02001004  RH  025%=      5-min Rain = 0
KFR1 200014Z 18014KT 20/M01 A2974 RMK A01 T01991005  RH  025%=      5-min Rain = 0
KFR1 200015Z 18014KT 20/M01 A2974 RMK A01 T01991005  RH  025%=      5-min Rain = 0
KFR1 200016Z 18014KT 20/M01 A2974 RMK A01 T01991005  RH  025%=      5-min Rain = 0
KFR1 200017Z 18014KT 20/M01 A2974 RMK A01 T01991005  RH  025%=      5-min Rain = 0
KFR1 200018Z 18014KT 20/M01 A2974 RMK A01 T01971005  RH  026%=      5-min Rain = 0
KFR1 200019Z 18013KT 20/M00 A2974 RMK A01 T01961004  RH  026%=      5-min Rain = 0
KFR1 200020Z 18016KT 20/M00 A2974 RMK A01 T01961004  RH  026%=      5-min Rain = 0
KFR1 200021Z 18015KT 20/M00 A2974 RMK A01 T01961004  RH  026%=      5-min Rain = 0
KFR1 200022Z 18015KT 20/M00 A2974 RMK A01 T01961004  RH  026%=      5-min Rain = 0
KFR1 200023Z 18015KT 20/M01 A2974 RMK A01 T01961005  RH  026%=      5-min Rain = 0
KFR1 200024Z 19016KT 20/M00 A2974 RMK A01 T01961004  RH  026%=      5-min Rain = 0
KFR1 200025Z 18015KT 20/M00 A2974 RMK A01 T01961004  RH  026%=      5-min Rain = 0
KFR1 200026Z 18017KT 20/M00 A2974 RMK A01 T01951004  RH  026%=      5-min Rain = 0
KFR1 200027Z 19017KT 20/M00 A2974 RMK A01 T01951003  RH  026%=      5-min Rain = 0
KFR1 200028Z 19013KT 20/M00 A2974 RMK A01 T01951003  RH  026%=      5-min Rain = 0
KFR1 200029Z 19014KT 19/M00 A2974 RMK A01 T01941003  RH  027%=      5-min Rain = 0
KFR1 200030Z 19014KT 19/M00 A2974 RMK A01 T01931003  RH  027%=      5-min Rain = 0
KFR1 200031Z 19013KT 19/M00 A2974 RMK A01 T01931003  RH  027%=      5-min Rain = 0
KFR1 200032Z 18014G19KT 19/M00 A2974 RMK A01 T01921002  RH  027%=      5-min Rain = 0
KFR1 200033Z 18016G21KT 19/M00 A2974 RMK A01 T01911002  RH  027%=      5-min Rain = 0
KFR1 200034Z 18013KT 19/M00 A2974 RMK A01 T01911002  RH  027%=      5-min Rain = 0
KFR1 200035Z 18013KT 19/M00 A2974 RMK A01 T01911002  RH  027%=      5-min Rain = 0
KFR1 200036Z 18016KT 19/M00 A2974 RMK A01 T01911002  RH  027%=      5-min Rain = 0
KFR1 200037Z 18017KT 19/M00 A2974 RMK A01 T01911003  RH  027%=      5-min Rain = 0
KFR1 200038Z 18015KT 19/M00 A2975 RMK A01 T01921003  RH  027%=      5-min Rain = 0
KFR1 200039Z 18016KT 19/M00 A2975 RMK A01 T01921003  RH  027%=      5-min Rain = 0
KFR1 200040Z 18015KT 19/M00 A2975 RMK A01 T01921003  RH  027%=      5-min Rain = 0
KFR1 200041Z 18015KT 19/M00 A2975 RMK A01 T01931003  RH  027%=      5-min Rain = 0
KFR1 200042Z 18016KT 19/M00 A2975 RMK A01 T01941003  RH  027%=      5-min Rain = 0
KFR1 200043Z 18016G22KT 19/M00 A2975 RMK A01 T01931003  RH  027%=      5-min Rain = 0
KFR1 200044Z 18016KT 19/M00 A2975 RMK A01 T01941003  RH  027%=      5-min Rain = 0
KFR1 200045Z 18016KT 19/M00 A2975 RMK A01 T01941003  RH  027%=      5-min Rain = 0
KFR1 200046Z 18015KT 19/M00 A2975 RMK A01 T01941003  RH  027%=      5-min Rain = 0
KFR1 200047Z 18015KT 19/M00 A2975 RMK A01 T01941003  RH  027%=      5-min Rain = 0
KFR1 200048Z 18016G21KT 19/M00 A2975 RMK A01 T01941003  RH  027%=      5-min Rain = 0
KFR1 200049Z 18016KT 19/M00 A2975 RMK A01 T01941003  RH  026%=      5-min Rain = 0
KFR1 200050Z 18016KT 19/M00 A2975 RMK A01 T01941003  RH  027%=      5-min Rain = 0
KFR1 200051Z 18015G20KT 19/M00 A2975 RMK A01 T01941003  RH  027%=      5-min Rain = 0
KFR1 200052Z 18015KT 19/M00 A2975 RMK A01 T01941003  RH  027%=      5-min Rain = 0
KFR1 200053Z 18017KT 19/M00 A2975 RMK A01 T01941003  RH  026%=      5-min Rain = 0
KFR1 200054Z 18016KT 19/M00 A2975 RMK A01 T01941004  RH  026%=      5-min Rain = 0
KFR1 200055Z 18015KT 19/M00 A2975 RMK A01 T01941003  RH  027%=      5-min Rain = 0
KFR1 200056Z 18016KT 19/M00 A2975 RMK A01 T01931003  RH  027%=      5-min Rain = 0
KFR1 200057Z 18018KT 19/M00 A2975 RMK A01 T01931004  RH  027%=      5-min Rain = 0
KFR1 200058Z 18016G21KT 19/M00 A2975 RMK A01 T01941003  RH  027%=      5-min Rain = 0
KFR1 200059Z 18016KT 19/M00 A2975 RMK A01 T01931004  RH  027%=      5-min Rain = 0
KFR1 200100Z 18016KT 19/M00 A2975 RMK A01 T01931004  RH  027%=      5-min Rain = 0
KFR1 200101Z 18018KT 19/M00 A2975 RMK A01 T01931003  RH  027%=      5-min Rain = 0
KFR1 200102Z 18016G21KT 19/M00 A2975 RMK A01 T01921004  RH  027%=      5-min Rain = 0
KFR1 200103Z 18016KT 19/M00 A2975 RMK A01 T01921004  RH  027%=      5-min Rain = 0
KFR1 200104Z 18014G19KT 19/M00 A2975 RMK A01 T01921004  RH  027%=      5-min Rain = 0
KFR1 200105Z 18018KT 19/M00 A2975 RMK A01 T01911004  RH  027%=      5-min Rain = 0
KFR1 200106Z 18016KT 19/M00 A2975 RMK A01 T01911004  RH  027%=      5-min Rain = 0
KFR1 200107Z 18016KT 19/M00 A2975 RMK A01 T01901004  RH  027%=      5-min Rain = 0
KFR1 200108Z 18018KT 19/M00 A2975 RMK A01 T01911004  RH  027%=      5-min Rain = 0
KFR1 200109Z 18018KT 19/M00 A2975 RMK A01 T01921004  RH  027%=      5-min Rain = 0
KFR1 200110Z 18015KT 19/M00 A2975 RMK A01 T01921004  RH  027%=      5-min Rain = 0
KFR1 200111Z 18017G22KT 19/M00 A2975 RMK A01 T01921004  RH  027%=      5-min Rain = 0
KFR1 200112Z 18018G23KT 19/M00 A2975 RMK A01 T01911004  RH  027%=      5-min Rain = 0
KFR1 200113Z 18017KT 19/M00 A2975 RMK A01 T01921004  RH  027%=      5-min Rain = 0
KFR1 200114Z 18017G22KT 19/M00 A2975 RMK A01 T01921004  RH  027%=      5-min Rain = 0
KFR1 200115Z 18017KT 19/M00 A2975 RMK A01 T01921004  RH  027%=      5-min Rain = 0
KFR1 200116Z 18015KT 19/M00 A2975 RMK A01 T01911004  RH  027%=      5-min Rain = 0
KFR1 200117Z 18016G22KT 19/M00 A2975 RMK A01 T01911004  RH  027%=      5-min Rain = 0
KFR1 200118Z 18016KT 19/M00 A2975 RMK A01 T01901004  RH  027%=      5-min Rain = 0
KFR1 200119Z 18017KT 19/M00 A2975 RMK A01 T01901004  RH  027%=      5-min Rain = 0
KFR1 200120Z 18015KT 19/M00 A2975 RMK A01 T01901004  RH  027%=      5-min Rain = 0
KFR1 200121Z 18015KT 19/M00 A2975 RMK A01 T01891004  RH  027%=      5-min Rain = 0
KFR1 200122Z 18017G22KT 19/M00 A2975 RMK A01 T01881004  RH  027%=      5-min Rain = 0
KFR1 200123Z 18015G21KT 19/M00 A2975 RMK A01 T01891003  RH  027%=      5-min Rain = 0
KFR1 200124Z 17015KT 19/M00 A2975 RMK A01 T01881004  RH  027%=      5-min Rain = 0
KFR1 200125Z 18017KT 19/M00 A2975 RMK A01 T01871003  RH  028%=      5-min Rain = 0
KFR1 200126Z 17016KT 19/M00 A2975 RMK A01 T01871004  RH  028%=      5-min Rain = 0
KFR1 200127Z 18016KT 19/M00 A2975 RMK A01 T01861004  RH  028%=      5-min Rain = 0
KFR1 200128Z 18016KT 19/M00 A2974 RMK A01 T01861004  RH  028%=      5-min Rain = 0
KFR1 200129Z 18015KT 19/M00 A2975 RMK A01 T01861004  RH  028%=      5-min Rain = 0
KFR1 200130Z 18017KT 19/M00 A2975 RMK A01 T01851003  RH  028%=      5-min Rain = 0
KFR1 200131Z 18016G22KT 19/M00 A2975 RMK A01 T01861003  RH  028%=      5-min Rain = 0
KFR1 200132Z 18017KT 19/M00 A2975 RMK A01 T01861004  RH  028%=      5-min Rain = 0
KFR1 200133Z 18017KT 19/M00 A2975 RMK A01 T01851004  RH  028%=      5-min Rain = 0
KFR1 200134Z 18016KT 19/M00 A2975 RMK A01 T01851003  RH  028%=      5-min Rain = 0
KFR1 200135Z 17015G20KT 19/M00 A2975 RMK A01 T01851003  RH  028%=      5-min Rain = 0
KFR1 200136Z 18014KT 18/M00 A2975 RMK A01 T01831003  RH  028%=      5-min Rain = 0
KFR1 200137Z 17014G20KT 18/M00 A2975 RMK A01 T01821003  RH  028%=      5-min Rain = 0
KFR1 200138Z 18017KT 18/M00 A2975 RMK A01 T01821003  RH  029%=      5-min Rain = 0
KFR1 200139Z 17015KT 18/M00 A2975 RMK A01 T01821003  RH  029%=      5-min Rain = 0
KFR1 200140Z 17014KT 18/M00 A2975 RMK A01 T01821003  RH  029%=      5-min Rain = 0
KFR1 200141Z 17017KT 18/M00 A2975 RMK A01 T01821003  RH  029%=      5-min Rain = 0
KFR1 200142Z 17015KT 18/M00 A2975 RMK A01 T01821003  RH  029%=      5-min Rain = 0
KFR1 200143Z 17016KT 18/M00 A2975 RMK A01 T01811003  RH  029%=      5-min Rain = 0
KFR1 200144Z 18015KT 18/M00 A2975 RMK A01 T01811003  RH  029%=      5-min Rain = 0
KFR1 200145Z 17017KT 18/M00 A2974 RMK A01 T01801002  RH  029%=      5-min Rain = 0
KFR1 200146Z 17015G21KT 18/M00 A2975 RMK A01 T01801003  RH  029%=      5-min Rain = 0
KFR1 200147Z 17016KT 18/M00 A2975 RMK A01 T01801003  RH  029%=      5-min Rain = 0
KFR1 200148Z 17013G19KT 18/M00 A2975 RMK A01 T01791002  RH  029%=      5-min Rain = 0
KFR1 200149Z 17014KT 18/M00 A2975 RMK A01 T01781002  RH  029%=      5-min Rain = 0
KFR1 200150Z 17016KT 18/M00 A2974 RMK A01 T01771002  RH  030%=      5-min Rain = 0
KFR1 200151Z 17017KT 18/M00 A2974 RMK A01 T01771002  RH  030%=      5-min Rain = 0
KFR1 200152Z 17016KT 18/M00 A2975 RMK A01 T01771002  RH  030%=      5-min Rain = 0
KFR1 200153Z 17017KT 18/M00 A2974 RMK A01 T01771002  RH  030%=      5-min Rain = 0
KFR1 200154Z 17017KT 18/M00 A2974 RMK A01 T01771002  RH  030%=      5-min Rain = 0
KFR1 200155Z 17018KT 18/M00 A2974 RMK A01 T01761001  RH  030%=      5-min Rain = 0
KFR1 200156Z 17017KT 18/M00 A2974 RMK A01 T01761002  RH  030%=      5-min Rain = 0
KFR1 200157Z 17015KT 18/M00 A2974 RMK A01 T01761001  RH  030%=      5-min Rain = 0
KFR1 200158Z 17016KT 18/M00 A2974 RMK A01 T01751001  RH  030%=      5-min Rain = 0
KFR1 200159Z 17017KT 18/M00 A2975 RMK A01 T01751001  RH  030%=      5-min Rain = 0
KFR1 200200Z 17020KT 18/M00 A2974 RMK A01 T01761001  RH  030%=      5-min Rain = 0
KFR1 200201Z 17018KT 18/00 A2975 RMK A01 T017700-0  RH  030%=      5-min Rain = 0
KFR1 200202Z 18017KT 18/00 A2975 RMK A01 T01780000  RH  030%=      5-min Rain = 0
KFR1 200203Z 17018KT 18/00 A2975 RMK A01 T017700-0  RH  030%=      5-min Rain = 0
KFR1 200204Z 17016KT 18/00 A2975 RMK A01 T01770000  RH  030%=      5-min Rain = 0
KFR1 200205Z 17016KT 18/00 A2975 RMK A01 T01770001  RH  030%=      5-min Rain = 0
KFR1 200206Z 17017G22KT 18/00 A2975 RMK A01 T01770001  RH  031%=      5-min Rain = 0
KFR1 200207Z 18017KT 18/00 A2975 RMK A01 T01780002  RH  031%=      5-min Rain = 0
KFR1 200208Z 17019KT 18/00 A2975 RMK A01 T01780002  RH  030%=      5-min Rain = 0
KFR1 200209Z 17018KT 18/00 A2975 RMK A01 T01790003  RH  030%=      5-min Rain = 0
KFR1 200210Z 17018KT 18/00 A2975 RMK A01 T01790003  RH  030%=      5-min Rain = 0
KFR1 200211Z 18018G23KT 18/00 A2975 RMK A01 T01790004  RH  031%=      5-min Rain = 0
KFR1 200212Z 18017G22KT 18/00 A2975 RMK A01 T01800004  RH  030%=      5-min Rain = 0
KFR1 200213Z 17019G24KT 18/00 A2975 RMK A01 T01800004  RH  030%=      5-min Rain = 0
KFR1 200214Z 17016KT 18/00 A2975 RMK A01 T01800004  RH  030%=      5-min Rain = 0
KFR1 200215Z 18017G23KT 18/00 A2975 RMK A01 T01800004  RH  031%=      5-min Rain = 0
KFR1 200216Z 18018G23KT 18/00 A2974 RMK A01 T01790004  RH  031%=      5-min Rain = 0
KFR1 200217Z 18018KT 18/01 A2975 RMK A01 T01800005  RH  031%=      5-min Rain = 0
KFR1 200218Z 17020KT 18/01 A2974 RMK A01 T01800005  RH  031%=      5-min Rain = 0
KFR1 200219Z 17018G24KT 18/01 A2974 RMK A01 T01800006  RH  031%=      5-min Rain = 0
KFR1 200220Z 17019G26KT 18/01 A2974 RMK A01 T01800006  RH  031%=      5-min Rain = 0
KFR1 200221Z 18019KT 18/01 A2974 RMK A01 T01800005  RH  031%=      5-min Rain = 0
KFR1 200222Z 18020G26KT 18/01 A2974 RMK A01 T01810006  RH  031%=      5-min Rain = 0
KFR1 200223Z 18018G23KT 18/01 A2974 RMK A01 T01810006  RH  031%=      5-min Rain = 0
KFR1 200224Z 17017G22KT 18/01 A2975 RMK A01 T01810006  RH  031%=      5-min Rain = 0
KFR1 200225Z 17020G26KT 18/01 A2974 RMK A01 T01800007  RH  031%=      5-min Rain = 0
KFR1 200226Z 18018KT 18/01 A2975 RMK A01 T01800007  RH  031%=      5-min Rain = 0
KFR1 200227Z 17019G24KT 18/01 A2974 RMK A01 T01800007  RH  031%=      5-min Rain = 0
KFR1 200228Z 18018KT 18/01 A2974 RMK A01 T01800007  RH  031%=      5-min Rain = 0
KFR1 200229Z 18020KT 18/01 A2974 RMK A01 T01800007  RH  031%=      5-min Rain = 0
KFR1 200230Z 17018KT 18/01 A2974 RMK A01 T01800008  RH  031%=      5-min Rain = 0
KFR1 200231Z 17020KT 18/01 A2974 RMK A01 T01790008  RH  032%=      5-min Rain = 0
KFR1 200232Z 18018G23KT 18/01 A2974 RMK A01 T01790008  RH  032%=      5-min Rain = 0
KFR1 200233Z 17019KT 18/01 A2974 RMK A01 T01780008  RH  032%=      5-min Rain = 0
KFR1 200234Z 17018KT 18/01 A2974 RMK A01 T01780008  RH  032%=      5-min Rain = 0
KFR1 200235Z 18019G24KT 18/01 A2974 RMK A01 T01780008  RH  032%=      5-min Rain = 0
KFR1 200236Z 17018G23KT 18/01 A2974 RMK A01 T01770008  RH  032%=      5-min Rain = 0
KFR1 200237Z 18015KT 18/01 A2974 RMK A01 T01770008  RH  032%=      5-min Rain = 0
KFR1 200238Z 18019KT 18/01 A2974 RMK A01 T01750009  RH  033%=      5-min Rain = 0
KFR1 200239Z 17017G23KT 18/01 A2974 RMK A01 T01750009  RH  033%=      5-min Rain = 0
KFR1 200240Z 18018KT 18/01 A2974 RMK A01 T01750009  RH  033%=      5-min Rain = 0
KFR1 200241Z 18017G23KT 18/01 A2974 RMK A01 T01750009  RH  033%=      5-min Rain = 0
KFR1 200242Z 17018G23KT 18/01 A2974 RMK A01 T01750009  RH  033%=      5-min Rain = 0
KFR1 200243Z 18018KT 17/01 A2974 RMK A01 T01740009  RH  033%=      5-min Rain = 0
KFR1 200244Z 17019KT 17/01 A2974 RMK A01 T01740009  RH  033%=      5-min Rain = 0
KFR1 200245Z 17017G22KT 17/01 A2974 RMK A01 T01730009  RH  033%=      5-min Rain = 0
KFR1 200246Z 17020KT 17/01 A2974 RMK A01 T01730009  RH  033%=      5-min Rain = 0
KFR1 200247Z 18018G24KT 17/01 A2974 RMK A01 T01730009  RH  033%=      5-min Rain = 0
KFR1 200248Z 17018KT 17/01 A2974 RMK A01 T01720009  RH  033%=      5-min Rain = 0
KFR1 200249Z 18019KT 17/01 A2974 RMK A01 T01720009  RH  033%=      5-min Rain = 0
KFR1 200250Z 18018G23KT 17/01 A2974 RMK A01 T01720010  RH  033%=      5-min Rain = 0
KFR1 200251Z 17020G26KT 17/01 A2974 RMK A01 T01720010  RH  033%=      5-min Rain = 0
KFR1 200252Z 18017G23KT 17/01 A2974 RMK A01 T01720010  RH  034%=      5-min Rain = 0
KFR1 200253Z 18018KT 17/01 A2974 RMK A01 T01710010  RH  034%=      5-min Rain = 0
KFR1 200254Z 18018G23KT 17/01 A2974 RMK A01 T01710010  RH  034%=      5-min Rain = 0
KFR1 200255Z 18018G23KT 17/01 A2974 RMK A01 T01710010  RH  034%=      5-min Rain = 0
KFR1 200256Z 18021KT 17/01 A2974 RMK A01 T01710011  RH  034%=      5-min Rain = 0
KFR1 200257Z 18019KT 17/01 A2974 RMK A01 T01710011  RH  034%=      5-min Rain = 0
KFR1 200258Z 18018KT 17/01 A2974 RMK A01 T01710010  RH  034%=      5-min Rain = 0
KFR1 200259Z 18017KT 17/01 A2974 RMK A01 T01710011  RH  034%=      5-min Rain = 0
KFR1 200300Z 18016G21KT 17/01 A2974 RMK A01 T01700011  RH  034%=      5-min Rain = 0
KFR1 200301Z 18017KT 17/01 A2974 RMK A01 T01700011  RH  034%=      5-min Rain = 0
KFR1 200302Z 18019KT 17/01 A2974 RMK A01 T01690011  RH  034%=      5-min Rain = 0
KFR1 200303Z 18017KT 17/01 A2974 RMK A01 T01690011  RH  034%=      5-min Rain = 0
KFR1 200304Z 18017KT 17/01 A2975 RMK A01 T01690011  RH  034%=      5-min Rain = 0
KFR1 200305Z 18018KT 17/01 A2975 RMK A01 T01690011  RH  034%=      5-min Rain = 0
KFR1 200306Z 18017KT 17/01 A2975 RMK A01 T01690011  RH  035%=      5-min Rain = 0
KFR1 200307Z 18017KT 17/01 A2975 RMK A01 T01680011  RH  035%=      5-min Rain = 0
KFR1 200308Z 17015KT 17/01 A2975 RMK A01 T01680011  RH  035%=      5-min Rain = 0
KFR1 200309Z 18016KT 17/01 A2975 RMK A01 T01680011  RH  035%=      5-min Rain = 0
KFR1 200310Z 18017KT 17/01 A2975 RMK A01 T01670011  RH  035%=      5-min Rain = 0
KFR1 200311Z 18016KT 17/01 A2975 RMK A01 T01670011  RH  035%=      5-min Rain = 0
KFR1 200312Z 18017KT 17/01 A2975 RMK A01 T01670011  RH  035%=      5-min Rain = 0
KFR1 200313Z 18016KT 17/01 A2975 RMK A01 T01670011  RH  035%=      5-min Rain = 0
KFR1 200314Z 18015KT 17/01 A2975 RMK A01 T01670011  RH  035%=      5-min Rain = 0
KFR1 200315Z 18014KT 17/01 A2975 RMK A01 T01660011  RH  035%=      5-min Rain = 0
KFR1 200316Z 17015KT 17/01 A2975 RMK A01 T01650011  RH  035%=      5-min Rain = 0
KFR1 200317Z 18016G21KT 16/01 A2975 RMK A01 T01640011  RH  035%=      5-min Rain = 0
KFR1 200318Z 18015KT 17/01 A2975 RMK A01 T01650011  RH  035%=      5-min Rain = 0
KFR1 200319Z 18015KT 17/01 A2975 RMK A01 T01660011  RH  035%=      5-min Rain = 0
KFR1 200320Z 18014KT 17/01 A2975 RMK A01 T01660011  RH  035%=      5-min Rain = 0
KFR1 200321Z 18014KT 17/01 A2975 RMK A01 T01670011  RH  035%=      5-min Rain = 0
KFR1 200322Z 18014KT 17/01 A2975 RMK A01 T01670011  RH  035%=      5-min Rain = 0
KFR1 200323Z 18013G19KT 17/01 A2975 RMK A01 T01660011  RH  035%=      5-min Rain = 0
KFR1 200324Z 19017KT 17/01 A2975 RMK A01 T01650011  RH  035%=      5-min Rain = 0
KFR1 200325Z 19014KT 17/01 A2975 RMK A01 T01660011  RH  035%=      5-min Rain = 0
KFR1 200326Z 19014KT 17/01 A2975 RMK A01 T01660011  RH  035%=      5-min Rain = 0
KFR1 200327Z 18014KT 17/01 A2975 RMK A01 T01660011  RH  035%=      5-min Rain = 0
KFR1 200328Z 19012G17KT 17/01 A2976 RMK A01 T01650011  RH  035%=      5-min Rain = 0
KFR1 200329Z 18014KT 16/01 A2976 RMK A01 T01640011  RH  035%=      5-min Rain = 0
KFR1 200330Z 19014KT 16/01 A2975 RMK A01 T01640011  RH  035%=      5-min Rain = 0
KFR1 200331Z 19016KT 16/01 A2975 RMK A01 T01640011  RH  035%=      5-min Rain = 0
KFR1 200332Z 19015G20KT 16/01 A2976 RMK A01 T01640010  RH  035%=      5-min Rain = 0
KFR1 200333Z 19015G20KT 16/01 A2976 RMK A01 T01640010  RH  035%=      5-min Rain = 0
KFR1 200334Z 19014KT 16/01 A2976 RMK A01 T01640010  RH  035%=      5-min Rain = 0
KFR1 200335Z 19014KT 16/01 A2976 RMK A01 T01640010  RH  035%=      5-min Rain = 0
KFR1 200336Z 19016KT 16/01 A2976 RMK A01 T01630010  RH  035%=      5-min Rain = 0
KFR1 200337Z 19013KT 16/01 A2976 RMK A01 T01630010  RH  035%=      5-min Rain = 0
KFR1 200338Z 19017G22KT 16/01 A2976 RMK A01 T01630010  RH  035%=      5-min Rain = 0
KFR1 200339Z 19014KT 16/01 A2976 RMK A01 T01630010  RH  035%=      5-min Rain = 0
KFR1 200340Z 19016KT 16/01 A2976 RMK A01 T01630010  RH  035%=      5-min Rain = 0
KFR1 200341Z 20015KT 16/01 A2976 RMK A01 T01630009  RH  035%=      5-min Rain = 0
KFR1 200342Z 19017KT 16/01 A2976 RMK A01 T01630010  RH  035%=      5-min Rain = 0
KFR1 200343Z 20014G20KT 16/01 A2976 RMK A01 T01630009  RH  035%=      5-min Rain = 0
KFR1 200344Z 20014KT 16/01 A2976 RMK A01 T01630009  RH  035%=      5-min Rain = 0
KFR1 200345Z 19014G19KT 16/01 A2976 RMK A01 T01630009  RH  035%=      5-min Rain = 0
KFR1 200346Z 20014KT 16/01 A2976 RMK A01 T01620009  RH  035%=      5-min Rain = 0
KFR1 200347Z 20015KT 16/01 A2976 RMK A01 T01620010  RH  036%=      5-min Rain = 0
KFR1 200348Z 20015KT 16/01 A2976 RMK A01 T01610009  RH  036%=      5-min Rain = 0
KFR1 200349Z 20013G21KT 16/01 A2976 RMK A01 T01610009  RH  036%=      5-min Rain = 0
KFR1 200350Z 20013KT 16/01 A2976 RMK A01 T01600009  RH  036%=      5-min Rain = 0
KFR1 200351Z 20012KT 16/01 A2976 RMK A01 T01590009  RH  036%=      5-min Rain = 0
KFR1 200352Z 20013KT 16/01 A2976 RMK A01 T01590009  RH  036%=      5-min Rain = 0
KFR1 200353Z 20013KT 16/01 A2976 RMK A01 T01580009  RH  036%=      5-min Rain = 0
KFR1 200354Z 20013KT 16/01 A2976 RMK A01 T01570009  RH  037%=      5-min Rain = 0
KFR1 200355Z 20012KT 16/01 A2976 RMK A01 T01570009  RH  037%=      5-min Rain = 0
KFR1 200356Z 20012KT 16/01 A2976 RMK A01 T01570009  RH  037%=      5-min Rain = 0
KFR1 200357Z 20012KT 16/01 A2976 RMK A01 T01570010  RH  037%=      5-min Rain = 0
KFR1 200358Z 20011KT 16/01 A2976 RMK A01 T01560009  RH  037%=      5-min Rain = 0
KFR1 200359Z 20012KT 16/01 A2976 RMK A01 T01560010  RH  037%=      5-min Rain = 0
KFR1 200400Z 20012KT 16/01 A2976 RMK A01 T01550010  RH  037%=      5-min Rain = 0
KFR1 200401Z 20012KT 16/01 A2976 RMK A01 T01550010  RH  037%=      5-min Rain = 0
KFR1 200402Z 20013KT 16/01 A2976 RMK A01 T01550010  RH  037%=      5-min Rain = 0
KFR1 200403Z 20014KT 16/01 A2976 RMK A01 T01550010  RH  037%=      5-min Rain = 0
KFR1 200404Z 20013KT 16/01 A2976 RMK A01 T01570010  RH  037%=      5-min Rain = 0
KFR1 200405Z 20013KT 16/01 A2976 RMK A01 T01580011  RH  037%=      5-min Rain = 0
KFR1 200406Z 20014KT 16/01 A2976 RMK A01 T01580010  RH  037%=      5-min Rain = 0
KFR1 200407Z 19014KT 16/01 A2976 RMK A01 T01570010  RH  037%=      5-min Rain = 0
KFR1 200408Z 20013KT 16/01 A2976 RMK A01 T01580010  RH  037%=      5-min Rain = 0
KFR1 200409Z 19013KT 16/01 A2976 RMK A01 T01580010  RH  037%=      5-min Rain = 0
KFR1 200410Z 20013KT 16/01 A2976 RMK A01 T01580010  RH  037%=      5-min Rain = 0
KFR1 200411Z 20014KT 16/01 A2975 RMK A01 T01580010  RH  037%=      5-min Rain = 0
KFR1 200412Z 20013KT 16/01 A2975 RMK A01 T01580009  RH  036%=      5-min Rain = 0
KFR1 200413Z 20013KT 16/01 A2975 RMK A01 T01580009  RH  036%=      5-min Rain = 0
KFR1 200414Z 21013KT 16/01 A2975 RMK A01 T01590009  RH  036%=      5-min Rain = 0
KFR1 200415Z 20013KT 16/01 A2975 RMK A01 T01590009  RH  036%=      5-min Rain = 0
KFR1 200416Z 20013KT 16/01 A2975 RMK A01 T01590009  RH  036%=      5-min Rain = 0
KFR1 200417Z 20013KT 16/01 A2976 RMK A01 T01590009  RH  036%=      5-min Rain = 0
KFR1 200418Z 20013KT 16/01 A2975 RMK A01 T01580008  RH  036%=      5-min Rain = 0
KFR1 200419Z 20012KT 16/01 A2975 RMK A01 T01590008  RH  036%=      5-min Rain = 0
KFR1 200420Z 20012KT 16/01 A2976 RMK A01 T01590007  RH  036%=      5-min Rain = 0
KFR1 200421Z 20013KT 16/01 A2975 RMK A01 T01590007  RH  035%=      5-min Rain = 0
KFR1 200422Z 21013KT 16/01 A2975 RMK A01 T01610006  RH  035%=      5-min Rain = 0
KFR1 200423Z 20013KT 16/01 A2975 RMK A01 T01610006  RH  035%=      5-min Rain = 0
KFR1 200424Z 21014KT 16/01 A2975 RMK A01 T01620005  RH  035%=      5-min Rain = 0
KFR1 200425Z 21013KT 16/01 A2976 RMK A01 T01640005  RH  034%=      5-min Rain = 0
KFR1 200426Z 21012KT 16/01 A2976 RMK A01 T01640005  RH  034%=      5-min Rain = 0
KFR1 200427Z 21012KT 16/00 A2976 RMK A01 T01640004  RH  034%=      5-min Rain = 0
KFR1 200428Z 21013KT 16/00 A2976 RMK A01 T01630004  RH  034%=      5-min Rain = 0
KFR1 200429Z 21012KT 16/00 A2976 RMK A01 T01630004  RH  034%=      5-min Rain = 0
KFR1 200430Z 20012KT 16/00 A2976 RMK A01 T01630003  RH  034%=      5-min Rain = 0
KFR1 200431Z 21013G18KT 16/00 A2975 RMK A01 T01630002  RH  033%=      5-min Rain = 0
KFR1 200432Z 21015KT 17/00 A2975 RMK A01 T01650002  RH  033%=      5-min Rain = 0
KFR1 200433Z 21013G18KT 17/00 A2975 RMK A01 T01670002  RH  032%=      5-min Rain = 0
KFR1 200434Z 20014KT 17/00 A2975 RMK A01 T01680001  RH  032%=      5-min Rain = 0
KFR1 200435Z 20014KT 17/00 A2975 RMK A01 T01680000  RH  032%=      5-min Rain = 0
KFR1 200436Z 20014KT 17/00 A2975 RMK A01 T01690000  RH  032%=      5-min Rain = 0
KFR1 200437Z 20014KT 17/00 A2975 RMK A01 T016900-0  RH  032%=      5-min Rain = 0
KFR1 200438Z 20016KT 17/00 A2975 RMK A01 T016900-0  RH  032%=      5-min Rain = 0
KFR1 200439Z 20015KT 17/00 A2975 RMK A01 T016900-0  RH  032%=      5-min Rain = 0
KFR1 200440Z 20012KT 17/00 A2975 RMK A01 T016800-0  RH  032%=      5-min Rain = 0
KFR1 200441Z 20013G18KT 17/00 A2975 RMK A01 T016700-0  RH  032%=      5-min Rain = 0
KFR1 200442Z 20016KT 17/00 A2975 RMK A01 T016700-0  RH  032%=      5-min Rain = 0
KFR1 200443Z 20014KT 17/M00 A2975 RMK A01 T01661001  RH  032%=      5-min Rain = 0
KFR1 200444Z 20014G20KT 17/M00 A2975 RMK A01 T01671001  RH  032%=      5-min Rain = 0
KFR1 200445Z 20014KT 17/00 A2975 RMK A01 T016700-0  RH  032%=      5-min Rain = 0
KFR1 200446Z 20015KT 17/00 A2975 RMK A01 T016600-0  RH  032%=      5-min Rain = 0
KFR1 200447Z 20017KT 17/M00 A2975 RMK A01 T01661001  RH  032%=      5-min Rain = 0
KFR1 200448Z 20014KT 17/M00 A2975 RMK A01 T01661001  RH  032%=      5-min Rain = 0
KFR1 200449Z 21016KT 17/M00 A2975 RMK A01 T01661001  RH  032%=      5-min Rain = 0
KFR1 200450Z 20016KT 17/M00 A2975 RMK A01 T01661001  RH  032%=      5-min Rain = 0
KFR1 200451Z 20014KT 17/M00 A2975 RMK A01 T01651001  RH  032%=      5-min Rain = 0
KFR1 200452Z 20015KT 16/M00 A2975 RMK A01 T01641001  RH  033%=      5-min Rain = 0
KFR1 200453Z 20016G21KT 16/M00 A2975 RMK A01 T01631001  RH  033%=      5-min Rain = 0
KFR1 200454Z 20014KT 16/M00 A2975 RMK A01 T01631001  RH  033%=      5-min Rain = 0
KFR1 200455Z 20014KT 16/M00 A2975 RMK A01 T01621001  RH  033%=      5-min Rain = 0
KFR1 200456Z 20013KT 16/M00 A2975 RMK A01 T01621001  RH  033%=      5-min Rain = 0
KFR1 200457Z 20013KT 16/M00 A2975 RMK A01 T01611002  RH  033%=      5-min Rain = 0
KFR1 200458Z 20014KT 16/M00 A2975 RMK A01 T01611001  RH  033%=      5-min Rain = 0
KFR1 200459Z 20014KT 16/M00 A2975 RMK A01 T01601002  RH  033%=      5-min Rain = 0
KFR1 200500Z 20013KT 16/M00 A2975 RMK A01 T01601002  RH  033%=      5-min Rain = 0
KFR1 200501Z 20015KT 16/M00 A2975 RMK A01 T01591002  RH  033%=      5-min Rain = 0
KFR1 200502Z 20012KT 16/M00 A2975 RMK A01 T01591002  RH  033%=      5-min Rain = 0
KFR1 200503Z 20015KT 16/M00 A2975 RMK A01 T01581002  RH  033%=      5-min Rain = 0
KFR1 200504Z 20016KT 16/M00 A2975 RMK A01 T01581002  RH  033%=      5-min Rain = 0
KFR1 200505Z 20015KT 16/M00 A2975 RMK A01 T01591002  RH  033%=      5-min Rain = 0
KFR1 200506Z 20014KT 16/M00 A2975 RMK A01 T01581002  RH  033%=      5-min Rain = 0
KFR1 200507Z 20016KT 16/M00 A2975 RMK A01 T01571002  RH  034%=      5-min Rain = 0
KFR1 200508Z 20015KT 16/M00 A2975 RMK A01 T01571002  RH  034%=      5-min Rain = 0
KFR1 200509Z 20013KT 16/M00 A2975 RMK A01 T01571002  RH  034%=      5-min Rain = 0
KFR1 200510Z 20014KT 16/M00 A2975 RMK A01 T01561002  RH  034%=      5-min Rain = 0
KFR1 200511Z 20012G18KT 16/M00 A2975 RMK A01 T01551002  RH  034%=      5-min Rain = 0
KFR1 200512Z 20016KT 16/M00 A2975 RMK A01 T01551002  RH  034%=      5-min Rain = 0
KFR1 200513Z 20014KT 16/M00 A2975 RMK A01 T01551002  RH  034%=      5-min Rain = 0
KFR1 200514Z 20013KT 16/M00 A2975 RMK A01 T01551002  RH  034%=      5-min Rain = 0
KFR1 200515Z 20014KT 15/M00 A2975 RMK A01 T01531003  RH  034%=      5-min Rain = 0
KFR1 200516Z 20013KT 15/M00 A2975 RMK A01 T01531003  RH  034%=      5-min Rain = 0
KFR1 200517Z 20014KT 15/M00 A2975 RMK A01 T01531003  RH  035%=      5-min Rain = 0
KFR1 200518Z 20014KT 15/M00 A2975 RMK A01 T01531003  RH  034%=      5-min Rain = 0
KFR1 200519Z 20013G18KT 15/M00 A2975 RMK A01 T01531003  RH  034%=      5-min Rain = 0
KFR1 200520Z 20012KT 15/M00 A2975 RMK A01 T01521003  RH  035%=      5-min Rain = 0
KFR1 200521Z 20011KT 15/M00 A2975 RMK A01 T01521004  RH  035%=      5-min Rain = 0
KFR1 200522Z 20013KT 15/M00 A2975 RMK A01 T01511003  RH  035%=      5-min Rain = 0
KFR1 200523Z 20011KT 15/M00 A2975 RMK A01 T01511003  RH  035%=      5-min Rain = 0
KFR1 200524Z 20012KT 15/M00 A2975 RMK A01 T01501004  RH  035%=      5-min Rain = 0
KFR1 200525Z 20013KT 15/M00 A2975 RMK A01 T01491004  RH  035%=      5-min Rain = 0
KFR1 200526Z 20011KT 15/M00 A2975 RMK A01 T01481004  RH  035%=      5-min Rain = 0
KFR1 200527Z 20013G18KT 15/M00 A2975 RMK A01 T01481004  RH  035%=      5-min Rain = 0
KFR1 200528Z 20012KT 15/M00 A2975 RMK A01 T01491004  RH  035%=      5-min Rain = 0
KFR1 200529Z 20013KT 15/M01 A2975 RMK A01 T01501005  RH  035%=      5-min Rain = 0
KFR1 200530Z 20015KT 15/M01 A2975 RMK A01 T01501005  RH  035%=      5-min Rain = 0
KFR1 200531Z 20012G17KT 15/M01 A2975 RMK A01 T01491005  RH  035%=      5-min Rain = 0
KFR1 200532Z 20012KT 15/M01 A2975 RMK A01 T01501005  RH  035%=      5-min Rain = 0
KFR1 200533Z 20013KT 15/M01 A2975 RMK A01 T01491005  RH  035%=      5-min Rain = 0
KFR1 200534Z 20012KT 15/M01 A2975 RMK A01 T01491005  RH  035%=      5-min Rain = 0
KFR1 200535Z 20013KT 15/M01 A2975 RMK A01 T01491006  RH  035%=      5-min Rain = 0
KFR1 200536Z 20013KT 15/M01 A2975 RMK A01 T01491006  RH  035%=      5-min Rain = 0
KFR1 200537Z 20013KT 15/M01 A2975 RMK A01 T01491007  RH  034%=      5-min Rain = 0
KFR1 200538Z 21014KT 15/M01 A2975 RMK A01 T01491007  RH  034%=      5-min Rain = 0
KFR1 200539Z 20013KT 15/M01 A2975 RMK A01 T01491007  RH  034%=      5-min Rain = 0
KFR1 200540Z 20014KT 15/M01 A2975 RMK A01 T01491008  RH  034%=      5-min Rain = 0
KFR1 200541Z 21013KT 15/M01 A2974 RMK A01 T01491008  RH  034%=      5-min Rain = 0
KFR1 200542Z 20014KT 15/M01 A2974 RMK A01 T01491007  RH  034%=      5-min Rain = 0
KFR1 200543Z 20015KT 15/M01 A2974 RMK A01 T01481008  RH  034%=      5-min Rain = 0
KFR1 200544Z 21014KT 15/M01 A2974 RMK A01 T01481008  RH  034%=      5-min Rain = 0
KFR1 200545Z 20015KT 15/M01 A2974 RMK A01 T01481008  RH  034%=      5-min Rain = 0
KFR1 200546Z 21014KT 15/M01 A2974 RMK A01 T01481008  RH  034%=      5-min Rain = 0
KFR1 200547Z 20015KT 15/M01 A2974 RMK A01 T01481008  RH  034%=      5-min Rain = 0
KFR1 200548Z 21017KT 15/M01 A2974 RMK A01 T01481009  RH  034%=      5-min Rain = 0
KFR1 200549Z 20014KT 15/M01 A2974 RMK A01 T01491009  RH  034%=      5-min Rain = 0
KFR1 200550Z 21012KT 15/M01 A2974 RMK A01 T01481008  RH  034%=      5-min Rain = 0
KFR1 200551Z 21014KT 15/M01 A2974 RMK A01 T01461009  RH  034%=      5-min Rain = 0
KFR1 200552Z 21014KT 15/M01 A2974 RMK A01 T01461009  RH  034%=      5-min Rain = 0
KFR1 200553Z 20014KT 15/M01 A2974 RMK A01 T01461009  RH  035%=      5-min Rain = 0
KFR1 200554Z 20013KT 15/M01 A2974 RMK A01 T01461009  RH  035%=      5-min Rain = 0
KFR1 200555Z 21012KT 15/M01 A2974 RMK A01 T01451009  RH  035%=      5-min Rain = 0
KFR1 200556Z 20012KT 14/M01 A2974 RMK A01 T01441009  RH  035%=      5-min Rain = 0
KFR1 200557Z 20011KT 14/M01 A2974 RMK A01 T01431009  RH  035%=      5-min Rain = 0
KFR1 200558Z 21012KT 14/M01 A2974 RMK A01 T01421009  RH  035%=      5-min Rain = 0
KFR1 200559Z 20012KT 14/M01 A2974 RMK A01 T01421009  RH  035%=      5-min Rain = 0

Page generated in 0.1422 seconds.